<?xml version="1.0" encoding="UTF-8"?>
<gpx xmlns="http://www.topografix.com/GPX/1/1" xmlns:xsi="http://www.w3.org/2001/XMLSchema-instance" version="1.1" xsi:schemaLocation="http://www.topografix.com/GPX/1/1 http://www.topografix.com/GPX/1/1/gpx.xsd">
  <metadata>
    <name>Felixstowe Triathlon 2023 - Standard Aquabike</name>
  </metadata>
  <trk>
    <name>Felixstowe Triathlon 2023 - Standard Aquabike</name>
    <trkseg>
      <trkpt lat="51.957705" lon="1.343977">
        <ele>6.680814</ele>
        <time>2024-07-21T08:30:00.000Z</time>
      </trkpt>
      <trkpt lat="51.957447" lon="1.343746">
        <ele>6.680816</ele>
        <time>2024-07-21T08:30:03.000Z</time>
      </trkpt>
      <trkpt lat="51.957271" lon="1.343562">
        <ele>6.68082</ele>
        <time>2024-07-21T08:30:05.000Z</time>
      </trkpt>
      <trkpt lat="51.957004" lon="1.34334">
        <ele>6.680821</ele>
        <time>2024-07-21T08:30:08.000Z</time>
      </trkpt>
      <trkpt lat="51.956547" lon="1.342912">
        <ele>6.414701</ele>
        <time>2024-07-21T08:30:14.000Z</time>
      </trkpt>
      <trkpt lat="51.956108" lon="1.342519">
        <ele>6.110905</ele>
        <time>2024-07-21T08:30:20.000Z</time>
      </trkpt>
      <trkpt lat="51.955635" lon="1.342092">
        <ele>5.786512</ele>
        <time>2024-07-21T08:30:26.000Z</time>
      </trkpt>
      <trkpt lat="51.955069" lon="1.341549">
        <ele>4.850082</ele>
        <time>2024-07-21T08:30:33.000Z</time>
      </trkpt>
      <trkpt lat="51.954483" lon="1.340995">
        <ele>3.344425</ele>
        <time>2024-07-21T08:30:41.000Z</time>
      </trkpt>
      <trkpt lat="51.954397" lon="1.340937">
        <ele>3.113542</ele>
        <time>2024-07-21T08:30:42.000Z</time>
      </trkpt>
      <trkpt lat="51.953908" lon="1.34047">
        <ele>1.863719</ele>
        <time>2024-07-21T08:30:48.000Z</time>
      </trkpt>
      <trkpt lat="51.953298" lon="1.339901">
        <ele>1.296103</ele>
        <time>2024-07-21T08:30:56.000Z</time>
      </trkpt>
      <trkpt lat="51.952699" lon="1.339371">
        <ele>0.949255</ele>
        <time>2024-07-21T08:31:04.000Z</time>
      </trkpt>
      <trkpt lat="51.952356" lon="1.339054">
        <ele>0.744043</ele>
        <time>2024-07-21T08:31:08.000Z</time>
      </trkpt>
      <trkpt lat="51.952126" lon="1.338826">
        <ele>0.684955</ele>
        <time>2024-07-21T08:31:11.000Z</time>
      </trkpt>
      <trkpt lat="51.951966" lon="1.33868">
        <ele>0.699403</ele>
        <time>2024-07-21T08:31:13.000Z</time>
      </trkpt>
      <trkpt lat="51.951525" lon="1.338297">
        <ele>0.739317</ele>
        <time>2024-07-21T08:31:19.000Z</time>
      </trkpt>
      <trkpt lat="51.951446" lon="1.33822">
        <ele>0.746618</ele>
        <time>2024-07-21T08:31:20.000Z</time>
      </trkpt>
      <trkpt lat="51.951049" lon="1.337834">
        <ele>0.784875</ele>
        <time>2024-07-21T08:31:25.000Z</time>
      </trkpt>
      <trkpt lat="51.950661" lon="1.337473">
        <ele>0.818166</ele>
        <time>2024-07-21T08:31:30.000Z</time>
      </trkpt>
      <trkpt lat="51.950629" lon="1.337442">
        <ele>0.815058</ele>
        <time>2024-07-21T08:31:30.000Z</time>
      </trkpt>
      <trkpt lat="51.950571" lon="1.337386">
        <ele>0.810649</ele>
        <time>2024-07-21T08:31:31.000Z</time>
      </trkpt>
      <trkpt lat="51.950626" lon="1.337451">
        <ele>0.806217</ele>
        <time>2024-07-21T08:31:32.000Z</time>
      </trkpt>
      <trkpt lat="51.950664" lon="1.337468">
        <ele>0.803129</ele>
        <time>2024-07-21T08:31:32.000Z</time>
      </trkpt>
      <trkpt lat="51.951042" lon="1.337845">
        <ele>0.770278</ele>
        <time>2024-07-21T08:31:37.000Z</time>
      </trkpt>
      <trkpt lat="51.951455" lon="1.33822">
        <ele>0.73505</ele>
        <time>2024-07-21T08:31:42.000Z</time>
      </trkpt>
      <trkpt lat="51.951532" lon="1.338295">
        <ele>0.728308</ele>
        <time>2024-07-21T08:31:43.000Z</time>
      </trkpt>
      <trkpt lat="51.951963" lon="1.338673">
        <ele>0.691558</ele>
        <time>2024-07-21T08:31:48.000Z</time>
      </trkpt>
      <trkpt lat="51.95211" lon="1.338832">
        <ele>0.718088</ele>
        <time>2024-07-21T08:31:50.000Z</time>
      </trkpt>
      <trkpt lat="51.952344" lon="1.339047">
        <ele>0.807331</ele>
        <time>2024-07-21T08:31:53.000Z</time>
      </trkpt>
      <trkpt lat="51.952696" lon="1.339363">
        <ele>0.939382</ele>
        <time>2024-07-21T08:31:57.000Z</time>
      </trkpt>
      <trkpt lat="51.953293" lon="1.3399">
        <ele>1.162546</ele>
        <time>2024-07-21T08:32:05.000Z</time>
      </trkpt>
      <trkpt lat="51.953907" lon="1.34047">
        <ele>2.028446</ele>
        <time>2024-07-21T08:32:13.000Z</time>
      </trkpt>
      <trkpt lat="51.954385" lon="1.340937">
        <ele>3.221813</ele>
        <time>2024-07-21T08:32:19.000Z</time>
      </trkpt>
      <trkpt lat="51.954477" lon="1.340997">
        <ele>3.442265</ele>
        <time>2024-07-21T08:32:20.000Z</time>
      </trkpt>
      <trkpt lat="51.955069" lon="1.341554">
        <ele>4.879907</ele>
        <time>2024-07-21T08:32:28.000Z</time>
      </trkpt>
      <trkpt lat="51.955633" lon="1.342095">
        <ele>5.679452</ele>
        <time>2024-07-21T08:32:35.000Z</time>
      </trkpt>
      <trkpt lat="51.956113" lon="1.342508">
        <ele>6.243616</ele>
        <time>2024-07-21T08:32:41.000Z</time>
      </trkpt>
      <trkpt lat="51.95654" lon="1.342904">
        <ele>6.771951</ele>
        <time>2024-07-21T08:32:46.000Z</time>
      </trkpt>
      <trkpt lat="51.956995" lon="1.343324">
        <ele>6.826995</ele>
        <time>2024-07-21T08:32:52.000Z</time>
      </trkpt>
      <trkpt lat="51.95727" lon="1.343578">
        <ele>6.670853</ele>
        <time>2024-07-21T08:32:56.000Z</time>
      </trkpt>
      <trkpt lat="51.957457" lon="1.343747">
        <ele>6.561828</ele>
        <time>2024-07-21T08:32:58.000Z</time>
      </trkpt>
      <trkpt lat="51.957719" lon="1.343975">
        <ele>6.409434</ele>
        <time>2024-07-21T08:33:01.000Z</time>
      </trkpt>
      <trkpt lat="51.957856" lon="1.344141">
        <ele>6.318511</ele>
        <time>2024-07-21T08:33:03.000Z</time>
      </trkpt>
      <trkpt lat="51.958078" lon="1.344274">
        <ele>6.198443</ele>
        <time>2024-07-21T08:33:06.000Z</time>
      </trkpt>
      <trkpt lat="51.958168" lon="1.344358">
        <ele>6.143778</ele>
        <time>2024-07-21T08:33:07.000Z</time>
      </trkpt>
      <trkpt lat="51.958217" lon="1.343829">
        <ele>6.012443</ele>
        <time>2024-07-21T08:33:11.000Z</time>
      </trkpt>
      <trkpt lat="51.958204" lon="1.343439">
        <ele>5.940431</ele>
        <time>2024-07-21T08:33:14.000Z</time>
      </trkpt>
      <trkpt lat="51.958198" lon="1.34333">
        <ele>5.921258</ele>
        <time>2024-07-21T08:33:15.000Z</time>
      </trkpt>
      <trkpt lat="51.958201" lon="1.342775">
        <ele>5.81776</ele>
        <time>2024-07-21T08:33:19.000Z</time>
      </trkpt>
      <trkpt lat="51.958176" lon="1.342203">
        <ele>5.714599</ele>
        <time>2024-07-21T08:33:23.000Z</time>
      </trkpt>
      <trkpt lat="51.95818" lon="1.34212">
        <ele>5.699489</ele>
        <time>2024-07-21T08:33:24.000Z</time>
      </trkpt>
      <trkpt lat="51.958154" lon="1.341356">
        <ele>5.556787</ele>
        <time>2024-07-21T08:33:29.000Z</time>
      </trkpt>
      <trkpt lat="51.958152" lon="1.341262">
        <ele>5.541684</ele>
        <time>2024-07-21T08:33:30.000Z</time>
      </trkpt>
      <trkpt lat="51.958088" lon="1.340902">
        <ele>5.837288</ele>
        <time>2024-07-21T08:33:33.000Z</time>
      </trkpt>
      <trkpt lat="51.95807" lon="1.340934">
        <ele>5.886572</ele>
        <time>2024-07-21T08:33:33.000Z</time>
      </trkpt>
      <trkpt lat="51.957999" lon="1.340941">
        <ele>6.001158</ele>
        <time>2024-07-21T08:33:34.000Z</time>
      </trkpt>
      <trkpt lat="51.957931" lon="1.340858">
        <ele>6.116981</ele>
        <time>2024-07-21T08:33:35.000Z</time>
      </trkpt>
      <trkpt lat="51.957934" lon="1.340727">
        <ele>6.240271</ele>
        <time>2024-07-21T08:33:36.000Z</time>
      </trkpt>
      <trkpt lat="51.958047" lon="1.340617">
        <ele>6.419874</ele>
        <time>2024-07-21T08:33:37.000Z</time>
      </trkpt>
      <trkpt lat="51.958113" lon="1.340699">
        <ele>6.548544</ele>
        <time>2024-07-21T08:33:38.000Z</time>
      </trkpt>
      <trkpt lat="51.958171" lon="1.340622">
        <ele>6.6646</ele>
        <time>2024-07-21T08:33:39.000Z</time>
      </trkpt>
      <trkpt lat="51.958655" lon="1.340528">
        <ele>7.412506</ele>
        <time>2024-07-21T08:33:44.000Z</time>
      </trkpt>
      <trkpt lat="51.9589" lon="1.340509">
        <ele>7.781349</ele>
        <time>2024-07-21T08:33:47.000Z</time>
      </trkpt>
      <trkpt lat="51.959075" lon="1.340491">
        <ele>8.051892</ele>
        <time>2024-07-21T08:33:49.000Z</time>
      </trkpt>
      <trkpt lat="51.959689" lon="1.34056">
        <ele>9.830887</ele>
        <time>2024-07-21T08:33:56.000Z</time>
      </trkpt>
      <trkpt lat="51.959912" lon="1.340697">
        <ele>10.598619</ele>
        <time>2024-07-21T08:33:59.000Z</time>
      </trkpt>
      <trkpt lat="51.960203" lon="1.34098">
        <ele>11.751587</ele>
        <time>2024-07-21T08:34:03.000Z</time>
      </trkpt>
      <trkpt lat="51.960366" lon="1.341173">
        <ele>12.443266</ele>
        <time>2024-07-21T08:34:05.000Z</time>
      </trkpt>
      <trkpt lat="51.960394" lon="1.341209">
        <ele>12.554801</ele>
        <time>2024-07-21T08:34:05.000Z</time>
      </trkpt>
      <trkpt lat="51.960473" lon="1.341308">
        <ele>12.888155</ele>
        <time>2024-07-21T08:34:06.000Z</time>
      </trkpt>
      <trkpt lat="51.962456" lon="1.3437">
        <ele>18.399403</ele>
        <time>2024-07-21T08:34:33.000Z</time>
      </trkpt>
      <trkpt lat="51.962623" lon="1.343865">
        <ele>18.68024</ele>
        <time>2024-07-21T08:34:35.000Z</time>
      </trkpt>
      <trkpt lat="51.963581" lon="1.344425">
        <ele>20.062167</ele>
        <time>2024-07-21T08:34:46.000Z</time>
      </trkpt>
      <trkpt lat="51.964147" lon="1.344751">
        <ele>20.757239</ele>
        <time>2024-07-21T08:34:53.000Z</time>
      </trkpt>
      <trkpt lat="51.964481" lon="1.344925">
        <ele>21.071114</ele>
        <time>2024-07-21T08:34:57.000Z</time>
      </trkpt>
      <trkpt lat="51.964772" lon="1.3451">
        <ele>21.350525</ele>
        <time>2024-07-21T08:35:00.000Z</time>
      </trkpt>
      <trkpt lat="51.96497" lon="1.345188">
        <ele>21.536761</ele>
        <time>2024-07-21T08:35:02.000Z</time>
      </trkpt>
      <trkpt lat="51.965993" lon="1.345805">
        <ele>22.188355</ele>
        <time>2024-07-21T08:35:14.000Z</time>
      </trkpt>
      <trkpt lat="51.966137" lon="1.345876">
        <ele>22.208748</ele>
        <time>2024-07-21T08:35:16.000Z</time>
      </trkpt>
      <trkpt lat="51.966479" lon="1.346086">
        <ele>22.259475</ele>
        <time>2024-07-21T08:35:20.000Z</time>
      </trkpt>
      <trkpt lat="51.966816" lon="1.346269">
        <ele>22.309499</ele>
        <time>2024-07-21T08:35:24.000Z</time>
      </trkpt>
      <trkpt lat="51.96711" lon="1.346405">
        <ele>22.351427</ele>
        <time>2024-07-21T08:35:27.000Z</time>
      </trkpt>
      <trkpt lat="51.96794" lon="1.346732">
        <ele>22.248303</ele>
        <time>2024-07-21T08:35:36.000Z</time>
      </trkpt>
      <trkpt lat="51.967989" lon="1.346056">
        <ele>22.163546</ele>
        <time>2024-07-21T08:35:41.000Z</time>
      </trkpt>
      <trkpt lat="51.968035" lon="1.345703">
        <ele>22.118667</ele>
        <time>2024-07-21T08:35:43.000Z</time>
      </trkpt>
      <trkpt lat="51.968126" lon="1.345206">
        <ele>22.056297</ele>
        <time>2024-07-21T08:35:47.000Z</time>
      </trkpt>
      <trkpt lat="51.96825" lon="1.344886">
        <ele>21.994783</ele>
        <time>2024-07-21T08:35:50.000Z</time>
      </trkpt>
      <trkpt lat="51.968257" lon="1.34483">
        <ele>21.97472</ele>
        <time>2024-07-21T08:35:50.000Z</time>
      </trkpt>
      <trkpt lat="51.968433" lon="1.344463">
        <ele>21.841658</ele>
        <time>2024-07-21T08:35:53.000Z</time>
      </trkpt>
      <trkpt lat="51.968697" lon="1.344056">
        <ele>21.668295</ele>
        <time>2024-07-21T08:35:57.000Z</time>
      </trkpt>
      <trkpt lat="51.969123" lon="1.343718">
        <ele>21.440652</ele>
        <time>2024-07-21T08:36:02.000Z</time>
      </trkpt>
      <trkpt lat="51.96957" lon="1.343372">
        <ele>21.206226</ele>
        <time>2024-07-21T08:36:08.000Z</time>
      </trkpt>
      <trkpt lat="51.970005" lon="1.342933">
        <ele>21.209514</ele>
        <time>2024-07-21T08:36:14.000Z</time>
      </trkpt>
      <trkpt lat="51.970741" lon="1.342143">
        <ele>21.307846</ele>
        <time>2024-07-21T08:36:24.000Z</time>
      </trkpt>
      <trkpt lat="51.97108" lon="1.341541">
        <ele>21.366763</ele>
        <time>2024-07-21T08:36:30.000Z</time>
      </trkpt>
      <trkpt lat="51.971404" lon="1.340795">
        <ele>21.672441</ele>
        <time>2024-07-21T08:36:36.000Z</time>
      </trkpt>
      <trkpt lat="51.97153" lon="1.340459">
        <ele>21.805561</ele>
        <time>2024-07-21T08:36:39.000Z</time>
      </trkpt>
      <trkpt lat="51.971761" lon="1.339938">
        <ele>22.021984</ele>
        <time>2024-07-21T08:36:43.000Z</time>
      </trkpt>
      <trkpt lat="51.972179" lon="1.339045">
        <ele>22.360902</ele>
        <time>2024-07-21T08:36:51.000Z</time>
      </trkpt>
      <trkpt lat="51.972294" lon="1.33879">
        <ele>22.405764</ele>
        <time>2024-07-21T08:36:53.000Z</time>
      </trkpt>
      <trkpt lat="51.972492" lon="1.338332">
        <ele>22.488618</ele>
        <time>2024-07-21T08:36:57.000Z</time>
      </trkpt>
      <trkpt lat="51.972582" lon="1.338182">
        <ele>22.519242</ele>
        <time>2024-07-21T08:36:58.000Z</time>
      </trkpt>
      <trkpt lat="51.972822" lon="1.337677">
        <ele>22.612149</ele>
        <time>2024-07-21T08:37:02.000Z</time>
      </trkpt>
      <trkpt lat="51.972989" lon="1.337291">
        <ele>22.677936</ele>
        <time>2024-07-21T08:37:05.000Z</time>
      </trkpt>
      <trkpt lat="51.973203" lon="1.336782">
        <ele>22.758277</ele>
        <time>2024-07-21T08:37:09.000Z</time>
      </trkpt>
      <trkpt lat="51.973251" lon="1.336653">
        <ele>22.755146</ele>
        <time>2024-07-21T08:37:10.000Z</time>
      </trkpt>
      <trkpt lat="51.973765" lon="1.33545">
        <ele>22.722124</ele>
        <time>2024-07-21T08:37:20.000Z</time>
      </trkpt>
      <trkpt lat="51.973818" lon="1.33535">
        <ele>22.719269</ele>
        <time>2024-07-21T08:37:21.000Z</time>
      </trkpt>
      <trkpt lat="51.973998" lon="1.334982">
        <ele>22.708888</ele>
        <time>2024-07-21T08:37:24.000Z</time>
      </trkpt>
      <trkpt lat="51.974399" lon="1.334195">
        <ele>22.648951</ele>
        <time>2024-07-21T08:37:31.000Z</time>
      </trkpt>
      <trkpt lat="51.974581" lon="1.333754">
        <ele>22.587422</ele>
        <time>2024-07-21T08:37:35.000Z</time>
      </trkpt>
      <trkpt lat="51.974954" lon="1.332577">
        <ele>22.428731</ele>
        <time>2024-07-21T08:37:44.000Z</time>
      </trkpt>
      <trkpt lat="51.975083" lon="1.332154">
        <ele>22.371945</ele>
        <time>2024-07-21T08:37:47.000Z</time>
      </trkpt>
      <trkpt lat="51.975358" lon="1.331165">
        <ele>21.782216</ele>
        <time>2024-07-21T08:37:54.000Z</time>
      </trkpt>
      <trkpt lat="51.975622" lon="1.330221">
        <ele>21.110859</ele>
        <time>2024-07-21T08:38:01.000Z</time>
      </trkpt>
      <trkpt lat="51.975621" lon="1.330199">
        <ele>21.084486</ele>
        <time>2024-07-21T08:38:01.000Z</time>
      </trkpt>
      <trkpt lat="51.975631" lon="1.330154">
        <ele>21.055283</ele>
        <time>2024-07-21T08:38:01.000Z</time>
      </trkpt>
      <trkpt lat="51.975749" lon="1.329757">
        <ele>20.763512</ele>
        <time>2024-07-21T08:38:04.000Z</time>
      </trkpt>
      <trkpt lat="51.975842" lon="1.329405">
        <ele>20.522971</ele>
        <time>2024-07-21T08:38:07.000Z</time>
      </trkpt>
      <trkpt lat="51.97596" lon="1.328941">
        <ele>20.246152</ele>
        <time>2024-07-21T08:38:10.000Z</time>
      </trkpt>
      <trkpt lat="51.976129" lon="1.328443">
        <ele>19.953049</ele>
        <time>2024-07-21T08:38:14.000Z</time>
      </trkpt>
      <trkpt lat="51.976144" lon="1.328318">
        <ele>19.884069</ele>
        <time>2024-07-21T08:38:15.000Z</time>
      </trkpt>
      <trkpt lat="51.976476" lon="1.32727">
        <ele>19.270413</ele>
        <time>2024-07-21T08:38:23.000Z</time>
      </trkpt>
      <trkpt lat="51.976893" lon="1.325851">
        <ele>18.963361</ele>
        <time>2024-07-21T08:38:34.000Z</time>
      </trkpt>
      <trkpt lat="51.976959" lon="1.32568">
        <ele>18.973268</ele>
        <time>2024-07-21T08:38:35.000Z</time>
      </trkpt>
      <trkpt lat="51.97712" lon="1.325113">
        <ele>19.005066</ele>
        <time>2024-07-21T08:38:39.000Z</time>
      </trkpt>
      <trkpt lat="51.977374" lon="1.32417">
        <ele>19.057555</ele>
        <time>2024-07-21T08:38:46.000Z</time>
      </trkpt>
      <trkpt lat="51.97748" lon="1.323977">
        <ele>19.107012</ele>
        <time>2024-07-21T08:38:48.000Z</time>
      </trkpt>
      <trkpt lat="51.977493" lon="1.323934">
        <ele>19.137914</ele>
        <time>2024-07-21T08:38:48.000Z</time>
      </trkpt>
      <trkpt lat="51.977839" lon="1.322815">
        <ele>19.776974</ele>
        <time>2024-07-21T08:38:57.000Z</time>
      </trkpt>
      <trkpt lat="51.978051" lon="1.322241">
        <ele>20.122454</ele>
        <time>2024-07-21T08:39:02.000Z</time>
      </trkpt>
      <trkpt lat="51.978624" lon="1.320832">
        <ele>21.039388</ele>
        <time>2024-07-21T08:39:14.000Z</time>
      </trkpt>
      <trkpt lat="51.978784" lon="1.320574">
        <ele>21.247306</ele>
        <time>2024-07-21T08:39:17.000Z</time>
      </trkpt>
      <trkpt lat="51.979129" lon="1.319955">
        <ele>21.725422</ele>
        <time>2024-07-21T08:39:23.000Z</time>
      </trkpt>
      <trkpt lat="51.980177" lon="1.318399">
        <ele>22.721923</ele>
        <time>2024-07-21T08:39:39.000Z</time>
      </trkpt>
      <trkpt lat="51.980401" lon="1.318187">
        <ele>22.870012</ele>
        <time>2024-07-21T08:39:42.000Z</time>
      </trkpt>
      <trkpt lat="51.980607" lon="1.317979">
        <ele>23.008352</ele>
        <time>2024-07-21T08:39:45.000Z</time>
      </trkpt>
      <trkpt lat="51.981054" lon="1.317504">
        <ele>23.324443</ele>
        <time>2024-07-21T08:39:51.000Z</time>
      </trkpt>
      <trkpt lat="51.981518" lon="1.316986">
        <ele>23.75914</ele>
        <time>2024-07-21T08:39:57.000Z</time>
      </trkpt>
      <trkpt lat="51.981679" lon="1.316778">
        <ele>23.913682</ele>
        <time>2024-07-21T08:39:59.000Z</time>
      </trkpt>
      <trkpt lat="51.981774" lon="1.316664">
        <ele>24.003455</ele>
        <time>2024-07-21T08:40:00.000Z</time>
      </trkpt>
      <trkpt lat="51.981809" lon="1.316617">
        <ele>24.044374</ele>
        <time>2024-07-21T08:40:01.000Z</time>
      </trkpt>
      <trkpt lat="51.982165" lon="1.316219">
        <ele>24.378684</ele>
        <time>2024-07-21T08:40:06.000Z</time>
      </trkpt>
      <trkpt lat="51.982429" lon="1.3159">
        <ele>24.628662</ele>
        <time>2024-07-21T08:40:10.000Z</time>
      </trkpt>
      <trkpt lat="51.983438" lon="1.314886">
        <ele>25.278423</ele>
        <time>2024-07-21T08:40:23.000Z</time>
      </trkpt>
      <trkpt lat="51.983633" lon="1.314702">
        <ele>25.405904</ele>
        <time>2024-07-21T08:40:26.000Z</time>
      </trkpt>
      <trkpt lat="51.983936" lon="1.314496">
        <ele>25.583049</ele>
        <time>2024-07-21T08:40:30.000Z</time>
      </trkpt>
      <trkpt lat="51.984861" lon="1.313954">
        <ele>25.452901</ele>
        <time>2024-07-21T08:40:41.000Z</time>
      </trkpt>
      <trkpt lat="51.985242" lon="1.31375">
        <ele>25.385913</ele>
        <time>2024-07-21T08:40:45.000Z</time>
      </trkpt>
      <trkpt lat="51.986029" lon="1.312988">
        <ele>24.936153</ele>
        <time>2024-07-21T08:40:55.000Z</time>
      </trkpt>
      <trkpt lat="51.986217" lon="1.312789">
        <ele>24.751378</ele>
        <time>2024-07-21T08:40:57.000Z</time>
      </trkpt>
      <trkpt lat="51.986875" lon="1.312118">
        <ele>24.100521</ele>
        <time>2024-07-21T08:41:06.000Z</time>
      </trkpt>
      <trkpt lat="51.987223" lon="1.311804">
        <ele>23.786512</ele>
        <time>2024-07-21T08:41:10.000Z</time>
      </trkpt>
      <trkpt lat="51.987595" lon="1.311457">
        <ele>23.620716</ele>
        <time>2024-07-21T08:41:15.000Z</time>
      </trkpt>
      <trkpt lat="51.987858" lon="1.311145">
        <ele>23.492954</ele>
        <time>2024-07-21T08:41:19.000Z</time>
      </trkpt>
      <trkpt lat="51.987942" lon="1.31095">
        <ele>23.436889</ele>
        <time>2024-07-21T08:41:21.000Z</time>
      </trkpt>
      <trkpt lat="51.988027" lon="1.310902">
        <ele>23.402113</ele>
        <time>2024-07-21T08:41:22.000Z</time>
      </trkpt>
      <trkpt lat="51.988227" lon="1.311033">
        <ele>23.320123</ele>
        <time>2024-07-21T08:41:24.000Z</time>
      </trkpt>
      <trkpt lat="51.988262" lon="1.311342">
        <ele>23.241969</ele>
        <time>2024-07-21T08:41:26.000Z</time>
      </trkpt>
      <trkpt lat="51.988235" lon="1.311463">
        <ele>23.213491</ele>
        <time>2024-07-21T08:41:27.000Z</time>
      </trkpt>
      <trkpt lat="51.988227" lon="1.311589">
        <ele>23.180628</ele>
        <time>2024-07-21T08:41:28.000Z</time>
      </trkpt>
      <trkpt lat="51.988261" lon="1.311871">
        <ele>23.112101</ele>
        <time>2024-07-21T08:41:30.000Z</time>
      </trkpt>
      <trkpt lat="51.988615" lon="1.312604">
        <ele>23.0597</ele>
        <time>2024-07-21T08:41:36.000Z</time>
      </trkpt>
      <trkpt lat="51.989216" lon="1.314386">
        <ele>22.953032</ele>
        <time>2024-07-21T08:41:50.000Z</time>
      </trkpt>
      <trkpt lat="51.989648" lon="1.316626">
        <ele>23.097523</ele>
        <time>2024-07-21T08:42:06.000Z</time>
      </trkpt>
      <trkpt lat="51.989758" lon="1.317087">
        <ele>23.128204</ele>
        <time>2024-07-21T08:42:09.000Z</time>
      </trkpt>
      <trkpt lat="51.990016" lon="1.317308">
        <ele>23.228581</ele>
        <time>2024-07-21T08:42:12.000Z</time>
      </trkpt>
      <trkpt lat="51.990073" lon="1.317321">
        <ele>23.253951</ele>
        <time>2024-07-21T08:42:13.000Z</time>
      </trkpt>
      <trkpt lat="51.990236" lon="1.317459">
        <ele>23.321578</ele>
        <time>2024-07-21T08:42:15.000Z</time>
      </trkpt>
      <trkpt lat="51.990422" lon="1.317773">
        <ele>23.424</ele>
        <time>2024-07-21T08:42:18.000Z</time>
      </trkpt>
      <trkpt lat="51.990544" lon="1.318216">
        <ele>23.541089</ele>
        <time>2024-07-21T08:42:21.000Z</time>
      </trkpt>
      <trkpt lat="51.990595" lon="1.318777">
        <ele>23.670879</ele>
        <time>2024-07-21T08:42:25.000Z</time>
      </trkpt>
      <trkpt lat="51.990574" lon="1.318859">
        <ele>23.691775</ele>
        <time>2024-07-21T08:42:26.000Z</time>
      </trkpt>
      <trkpt lat="51.990644" lon="1.319219">
        <ele>23.780841</ele>
        <time>2024-07-21T08:42:29.000Z</time>
      </trkpt>
      <trkpt lat="51.990794" lon="1.319478">
        <ele>23.865524</ele>
        <time>2024-07-21T08:42:31.000Z</time>
      </trkpt>
      <trkpt lat="51.991156" lon="1.319515">
        <ele>23.999366</ele>
        <time>2024-07-21T08:42:35.000Z</time>
      </trkpt>
      <trkpt lat="51.991601" lon="1.319203">
        <ele>24.178336</ele>
        <time>2024-07-21T08:42:40.000Z</time>
      </trkpt>
      <trkpt lat="51.991917" lon="1.318571">
        <ele>24.363879</ele>
        <time>2024-07-21T08:42:46.000Z</time>
      </trkpt>
      <trkpt lat="51.992167" lon="1.317811">
        <ele>24.468395</ele>
        <time>2024-07-21T08:42:52.000Z</time>
      </trkpt>
      <trkpt lat="51.992792" lon="1.316967">
        <ele>24.377776</ele>
        <time>2024-07-21T08:43:01.000Z</time>
      </trkpt>
      <trkpt lat="51.994758" lon="1.314294">
        <ele>23.542664</ele>
        <time>2024-07-21T08:43:30.000Z</time>
      </trkpt>
      <trkpt lat="51.995366" lon="1.313518">
        <ele>23.275599</ele>
        <time>2024-07-21T08:43:39.000Z</time>
      </trkpt>
      <trkpt lat="51.995717" lon="1.313412">
        <ele>23.151907</ele>
        <time>2024-07-21T08:43:43.000Z</time>
      </trkpt>
      <trkpt lat="51.995958" lon="1.313445">
        <ele>23.070583</ele>
        <time>2024-07-21T08:43:46.000Z</time>
      </trkpt>
      <trkpt lat="51.996618" lon="1.313526">
        <ele>22.972516</ele>
        <time>2024-07-21T08:43:53.000Z</time>
      </trkpt>
      <trkpt lat="51.998158" lon="1.313528">
        <ele>23.38945</ele>
        <time>2024-07-21T08:44:10.000Z</time>
      </trkpt>
      <trkpt lat="51.998388" lon="1.313511">
        <ele>23.407548</ele>
        <time>2024-07-21T08:44:13.000Z</time>
      </trkpt>
      <trkpt lat="51.999227" lon="1.313484">
        <ele>23.420418</ele>
        <time>2024-07-21T08:44:22.000Z</time>
      </trkpt>
      <trkpt lat="52.000235" lon="1.313188">
        <ele>23.34096</ele>
        <time>2024-07-21T08:44:33.000Z</time>
      </trkpt>
      <trkpt lat="52.000858" lon="1.313469">
        <ele>23.104293</ele>
        <time>2024-07-21T08:44:40.000Z</time>
      </trkpt>
      <trkpt lat="52.003229" lon="1.314236">
        <ele>22.500027</ele>
        <time>2024-07-21T08:45:07.000Z</time>
      </trkpt>
      <trkpt lat="52.003367" lon="1.314235">
        <ele>22.476677</ele>
        <time>2024-07-21T08:45:09.000Z</time>
      </trkpt>
      <trkpt lat="52.003839" lon="1.314345">
        <ele>22.499432</ele>
        <time>2024-07-21T08:45:14.000Z</time>
      </trkpt>
      <trkpt lat="52.005358" lon="1.315212">
        <ele>22.715673</ele>
        <time>2024-07-21T08:45:32.000Z</time>
      </trkpt>
      <trkpt lat="52.006233" lon="1.315449">
        <ele>22.656689</ele>
        <time>2024-07-21T08:45:42.000Z</time>
      </trkpt>
      <trkpt lat="52.006989" lon="1.31593">
        <ele>22.587526</ele>
        <time>2024-07-21T08:45:51.000Z</time>
      </trkpt>
      <trkpt lat="52.008032" lon="1.316781">
        <ele>22.012946</ele>
        <time>2024-07-21T08:46:04.000Z</time>
      </trkpt>
      <trkpt lat="52.008633" lon="1.317101">
        <ele>21.702798</ele>
        <time>2024-07-21T08:46:11.000Z</time>
      </trkpt>
      <trkpt lat="52.008732" lon="1.317119">
        <ele>21.66026</ele>
        <time>2024-07-21T08:46:12.000Z</time>
      </trkpt>
      <trkpt lat="52.008804" lon="1.317118">
        <ele>21.633066</ele>
        <time>2024-07-21T08:46:13.000Z</time>
      </trkpt>
      <trkpt lat="52.009079" lon="1.317203">
        <ele>21.512887</ele>
        <time>2024-07-21T08:46:16.000Z</time>
      </trkpt>
      <trkpt lat="52.009629" lon="1.317328">
        <ele>21.280941</ele>
        <time>2024-07-21T08:46:22.000Z</time>
      </trkpt>
      <trkpt lat="52.010233" lon="1.317273">
        <ele>21.035149</ele>
        <time>2024-07-21T08:46:29.000Z</time>
      </trkpt>
      <trkpt lat="52.011292" lon="1.316704">
        <ele>20.72018</ele>
        <time>2024-07-21T08:46:41.000Z</time>
      </trkpt>
      <trkpt lat="52.011948" lon="1.316055">
        <ele>20.523942</ele>
        <time>2024-07-21T08:46:50.000Z</time>
      </trkpt>
      <trkpt lat="52.01221" lon="1.315665">
        <ele>20.502235</ele>
        <time>2024-07-21T08:46:54.000Z</time>
      </trkpt>
      <trkpt lat="52.012667" lon="1.31508">
        <ele>20.491222</ele>
        <time>2024-07-21T08:47:00.000Z</time>
      </trkpt>
      <trkpt lat="52.013064" lon="1.314298">
        <ele>20.479428</ele>
        <time>2024-07-21T08:47:07.000Z</time>
      </trkpt>
      <trkpt lat="52.013532" lon="1.313791">
        <ele>20.522059</ele>
        <time>2024-07-21T08:47:13.000Z</time>
      </trkpt>
      <trkpt lat="52.013841" lon="1.313204">
        <ele>20.602719</ele>
        <time>2024-07-21T08:47:18.000Z</time>
      </trkpt>
      <trkpt lat="52.014019" lon="1.311977">
        <ele>20.740408</ele>
        <time>2024-07-21T08:47:27.000Z</time>
      </trkpt>
      <trkpt lat="52.014337" lon="1.311149">
        <ele>20.772581</ele>
        <time>2024-07-21T08:47:34.000Z</time>
      </trkpt>
      <trkpt lat="52.014423" lon="1.310942">
        <ele>20.76357</ele>
        <time>2024-07-21T08:47:36.000Z</time>
      </trkpt>
      <trkpt lat="52.014784" lon="1.309714">
        <ele>20.716765</ele>
        <time>2024-07-21T08:47:45.000Z</time>
      </trkpt>
      <trkpt lat="52.015036" lon="1.309323">
        <ele>20.697219</ele>
        <time>2024-07-21T08:47:49.000Z</time>
      </trkpt>
      <trkpt lat="52.015702" lon="1.308823">
        <ele>19.620675</ele>
        <time>2024-07-21T08:47:57.000Z</time>
      </trkpt>
      <trkpt lat="52.016311" lon="1.30825">
        <ele>18.373313</ele>
        <time>2024-07-21T08:48:05.000Z</time>
      </trkpt>
      <trkpt lat="52.016602" lon="1.30753">
        <ele>17.413355</ele>
        <time>2024-07-21T08:48:11.000Z</time>
      </trkpt>
      <trkpt lat="52.017159" lon="1.306737">
        <ele>15.985344</ele>
        <time>2024-07-21T08:48:19.000Z</time>
      </trkpt>
      <trkpt lat="52.017194" lon="1.306702">
        <ele>15.903856</ele>
        <time>2024-07-21T08:48:19.000Z</time>
      </trkpt>
      <trkpt lat="52.017912" lon="1.305857">
        <ele>14.187254</ele>
        <time>2024-07-21T08:48:29.000Z</time>
      </trkpt>
      <trkpt lat="52.018336" lon="1.305242">
        <ele>14.968711</ele>
        <time>2024-07-21T08:48:35.000Z</time>
      </trkpt>
      <trkpt lat="52.018592" lon="1.304136">
        <ele>16.52656</ele>
        <time>2024-07-21T08:48:43.000Z</time>
      </trkpt>
      <trkpt lat="52.019075" lon="1.303012">
        <ele>18.396774</ele>
        <time>2024-07-21T08:48:52.000Z</time>
      </trkpt>
      <trkpt lat="52.019825" lon="1.30179">
        <ele>20.999681</ele>
        <time>2024-07-21T08:49:04.000Z</time>
      </trkpt>
      <trkpt lat="52.020351" lon="1.300804">
        <ele>22.2247</ele>
        <time>2024-07-21T08:49:13.000Z</time>
      </trkpt>
      <trkpt lat="52.020831" lon="1.300103">
        <ele>22.250154</ele>
        <time>2024-07-21T08:49:20.000Z</time>
      </trkpt>
      <trkpt lat="52.021263" lon="1.299801">
        <ele>22.269172</ele>
        <time>2024-07-21T08:49:25.000Z</time>
      </trkpt>
      <trkpt lat="52.021801" lon="1.299559">
        <ele>22.259057</ele>
        <time>2024-07-21T08:49:31.000Z</time>
      </trkpt>
      <trkpt lat="52.023078" lon="1.299383">
        <ele>22.067876</ele>
        <time>2024-07-21T08:49:45.000Z</time>
      </trkpt>
      <trkpt lat="52.023198" lon="1.299391">
        <ele>22.050595</ele>
        <time>2024-07-21T08:49:46.000Z</time>
      </trkpt>
      <trkpt lat="52.023482" lon="1.299966">
        <ele>22.028812</ele>
        <time>2024-07-21T08:49:51.000Z</time>
      </trkpt>
      <trkpt lat="52.024003" lon="1.301349">
        <ele>22.080348</ele>
        <time>2024-07-21T08:50:02.000Z</time>
      </trkpt>
      <trkpt lat="52.024206" lon="1.301815">
        <ele>22.09884</ele>
        <time>2024-07-21T08:50:06.000Z</time>
      </trkpt>
      <trkpt lat="52.024435" lon="1.301882">
        <ele>22.10576</ele>
        <time>2024-07-21T08:50:09.000Z</time>
      </trkpt>
      <trkpt lat="52.025319" lon="1.301735">
        <ele>21.595491</ele>
        <time>2024-07-21T08:50:19.000Z</time>
      </trkpt>
      <trkpt lat="52.025697" lon="1.30226">
        <ele>21.306173</ele>
        <time>2024-07-21T08:50:25.000Z</time>
      </trkpt>
      <trkpt lat="52.026569" lon="1.30314">
        <ele>20.607462</ele>
        <time>2024-07-21T08:50:36.000Z</time>
      </trkpt>
      <trkpt lat="52.026441" lon="1.303974">
        <ele>20.208381</ele>
        <time>2024-07-21T08:50:42.000Z</time>
      </trkpt>
      <trkpt lat="52.026525" lon="1.304214">
        <ele>20.08281</ele>
        <time>2024-07-21T08:50:44.000Z</time>
      </trkpt>
      <trkpt lat="52.026848" lon="1.304669">
        <ele>19.759334</ele>
        <time>2024-07-21T08:50:49.000Z</time>
      </trkpt>
      <trkpt lat="52.027447" lon="1.305899">
        <ele>18.488621</ele>
        <time>2024-07-21T08:51:00.000Z</time>
      </trkpt>
      <trkpt lat="52.027821" lon="1.3071">
        <ele>17.359393</ele>
        <time>2024-07-21T08:51:09.000Z</time>
      </trkpt>
      <trkpt lat="52.02903" lon="1.307105">
        <ele>13.759039</ele>
        <time>2024-07-21T08:51:22.000Z</time>
      </trkpt>
      <trkpt lat="52.029113" lon="1.307218">
        <ele>13.44274</ele>
        <time>2024-07-21T08:51:23.000Z</time>
      </trkpt>
      <trkpt lat="52.02924" lon="1.307617">
        <ele>12.567126</ele>
        <time>2024-07-21T08:51:26.000Z</time>
      </trkpt>
      <trkpt lat="52.029309" lon="1.308035">
        <ele>11.767497</ele>
        <time>2024-07-21T08:51:29.000Z</time>
      </trkpt>
      <trkpt lat="52.029382" lon="1.308196">
        <ele>11.328636</ele>
        <time>2024-07-21T08:51:30.000Z</time>
      </trkpt>
      <trkpt lat="52.029471" lon="1.30827">
        <ele>10.929043</ele>
        <time>2024-07-21T08:51:31.000Z</time>
      </trkpt>
      <trkpt lat="52.029779" lon="1.308233">
        <ele>9.837369</ele>
        <time>2024-07-21T08:51:34.000Z</time>
      </trkpt>
      <trkpt lat="52.030055" lon="1.308049">
        <ele>8.730638</ele>
        <time>2024-07-21T08:51:37.000Z</time>
      </trkpt>
      <trkpt lat="52.030679" lon="1.308112">
        <ele>6.396365</ele>
        <time>2024-07-21T08:51:44.000Z</time>
      </trkpt>
      <trkpt lat="52.031157" lon="1.308052">
        <ele>5.040332</ele>
        <time>2024-07-21T08:51:49.000Z</time>
      </trkpt>
      <trkpt lat="52.031926" lon="1.307907">
        <ele>4.736657</ele>
        <time>2024-07-21T08:51:58.000Z</time>
      </trkpt>
      <trkpt lat="52.033521" lon="1.308007">
        <ele>4.538369</ele>
        <time>2024-07-21T08:52:16.000Z</time>
      </trkpt>
      <trkpt lat="52.033692" lon="1.3081">
        <ele>4.578546</ele>
        <time>2024-07-21T08:52:18.000Z</time>
      </trkpt>
      <trkpt lat="52.033737" lon="1.308239">
        <ele>4.601077</ele>
        <time>2024-07-21T08:52:19.000Z</time>
      </trkpt>
      <trkpt lat="52.03388" lon="1.308724">
        <ele>4.675208</ele>
        <time>2024-07-21T08:52:23.000Z</time>
      </trkpt>
      <trkpt lat="52.03399" lon="1.309374">
        <ele>4.768766</ele>
        <time>2024-07-21T08:52:28.000Z</time>
      </trkpt>
      <trkpt lat="52.033965" lon="1.309642">
        <ele>4.73667</ele>
        <time>2024-07-21T08:52:30.000Z</time>
      </trkpt>
      <trkpt lat="52.033954" lon="1.309859">
        <ele>4.657892</ele>
        <time>2024-07-21T08:52:31.000Z</time>
      </trkpt>
      <trkpt lat="52.033931" lon="1.311448">
        <ele>4.071936</ele>
        <time>2024-07-21T08:52:42.000Z</time>
      </trkpt>
      <trkpt lat="52.034039" lon="1.312419">
        <ele>3.712566</ele>
        <time>2024-07-21T08:52:49.000Z</time>
      </trkpt>
      <trkpt lat="52.034202" lon="1.313011">
        <ele>4.024962</ele>
        <time>2024-07-21T08:52:53.000Z</time>
      </trkpt>
      <trkpt lat="52.03433" lon="1.313305">
        <ele>4.191301</ele>
        <time>2024-07-21T08:52:55.000Z</time>
      </trkpt>
      <trkpt lat="52.034528" lon="1.313483">
        <ele>4.367386</ele>
        <time>2024-07-21T08:52:58.000Z</time>
      </trkpt>
      <trkpt lat="52.035488" lon="1.313621">
        <ele>5.100598</ele>
        <time>2024-07-21T08:53:09.000Z</time>
      </trkpt>
      <trkpt lat="52.036577" lon="1.31408">
        <ele>6.628479</ele>
        <time>2024-07-21T08:53:22.000Z</time>
      </trkpt>
      <trkpt lat="52.037044" lon="1.314164">
        <ele>7.268164</ele>
        <time>2024-07-21T08:53:27.000Z</time>
      </trkpt>
      <trkpt lat="52.037361" lon="1.314203">
        <ele>7.576013</ele>
        <time>2024-07-21T08:53:31.000Z</time>
      </trkpt>
      <trkpt lat="52.037417" lon="1.314201">
        <ele>7.603127</ele>
        <time>2024-07-21T08:53:32.000Z</time>
      </trkpt>
      <trkpt lat="52.037997" lon="1.314198">
        <ele>7.886036</ele>
        <time>2024-07-21T08:53:38.000Z</time>
      </trkpt>
      <trkpt lat="52.038144" lon="1.314197">
        <ele>7.957013</ele>
        <time>2024-07-21T08:53:40.000Z</time>
      </trkpt>
      <trkpt lat="52.038644" lon="1.314104">
        <ele>8.21114</ele>
        <time>2024-07-21T08:53:46.000Z</time>
      </trkpt>
      <trkpt lat="52.038982" lon="1.313702">
        <ele>8.367837</ele>
        <time>2024-07-21T08:53:51.000Z</time>
      </trkpt>
      <trkpt lat="52.03912" lon="1.313661">
        <ele>8.255651</ele>
        <time>2024-07-21T08:53:53.000Z</time>
      </trkpt>
      <trkpt lat="52.039735" lon="1.313739">
        <ele>7.735087</ele>
        <time>2024-07-21T08:54:00.000Z</time>
      </trkpt>
      <trkpt lat="52.040106" lon="1.31416">
        <ele>7.351938</ele>
        <time>2024-07-21T08:54:05.000Z</time>
      </trkpt>
      <trkpt lat="52.040829" lon="1.315734">
        <ele>7.085014</ele>
        <time>2024-07-21T08:54:18.000Z</time>
      </trkpt>
      <trkpt lat="52.041154" lon="1.315278">
        <ele>7.23081</ele>
        <time>2024-07-21T08:54:23.000Z</time>
      </trkpt>
      <trkpt lat="52.041609" lon="1.31467">
        <ele>7.42315</ele>
        <time>2024-07-21T08:54:30.000Z</time>
      </trkpt>
      <trkpt lat="52.042385" lon="1.3138">
        <ele>9.26871</ele>
        <time>2024-07-21T08:54:40.000Z</time>
      </trkpt>
      <trkpt lat="52.043047" lon="1.31338">
        <ele>10.811075</ele>
        <time>2024-07-21T08:54:48.000Z</time>
      </trkpt>
      <trkpt lat="52.04331" lon="1.313331">
        <ele>11.379686</ele>
        <time>2024-07-21T08:54:51.000Z</time>
      </trkpt>
      <trkpt lat="52.04354" lon="1.313377">
        <ele>12.23921</ele>
        <time>2024-07-21T08:54:54.000Z</time>
      </trkpt>
      <trkpt lat="52.043967" lon="1.313431">
        <ele>13.719448</ele>
        <time>2024-07-21T08:54:59.000Z</time>
      </trkpt>
      <trkpt lat="52.045743" lon="1.312747">
        <ele>19.618978</ele>
        <time>2024-07-21T08:55:19.000Z</time>
      </trkpt>
      <trkpt lat="52.045769" lon="1.312743">
        <ele>19.725715</ele>
        <time>2024-07-21T08:55:19.000Z</time>
      </trkpt>
      <trkpt lat="52.045843" lon="1.312724">
        <ele>19.915908</ele>
        <time>2024-07-21T08:55:20.000Z</time>
      </trkpt>
      <trkpt lat="52.046129" lon="1.312677">
        <ele>20.621284</ele>
        <time>2024-07-21T08:55:23.000Z</time>
      </trkpt>
      <trkpt lat="52.047796" lon="1.312214">
        <ele>23.019955</ele>
        <time>2024-07-21T08:55:42.000Z</time>
      </trkpt>
      <trkpt lat="52.049191" lon="1.311962">
        <ele>23.04979</ele>
        <time>2024-07-21T08:55:58.000Z</time>
      </trkpt>
      <trkpt lat="52.049455" lon="1.31171">
        <ele>22.844854</ele>
        <time>2024-07-21T08:56:01.000Z</time>
      </trkpt>
      <trkpt lat="52.051977" lon="1.308873">
        <ele>20.744617</ele>
        <time>2024-07-21T08:56:35.000Z</time>
      </trkpt>
      <trkpt lat="52.051949" lon="1.308824">
        <ele>20.746462</ele>
        <time>2024-07-21T08:56:35.000Z</time>
      </trkpt>
      <trkpt lat="52.052202" lon="1.308543">
        <ele>20.761474</ele>
        <time>2024-07-21T08:56:38.000Z</time>
      </trkpt>
      <trkpt lat="52.051952" lon="1.308828">
        <ele>20.776488</ele>
        <time>2024-07-21T08:56:41.000Z</time>
      </trkpt>
      <trkpt lat="52.051983" lon="1.308865">
        <ele>20.778337</ele>
        <time>2024-07-21T08:56:41.000Z</time>
      </trkpt>
      <trkpt lat="52.054039" lon="1.306567">
        <ele>21.840278</ele>
        <time>2024-07-21T08:57:09.000Z</time>
      </trkpt>
      <trkpt lat="52.054217" lon="1.306363">
        <ele>21.947113</ele>
        <time>2024-07-21T08:57:11.000Z</time>
      </trkpt>
      <trkpt lat="52.054149" lon="1.30562">
        <ele>22.107728</ele>
        <time>2024-07-21T08:57:16.000Z</time>
      </trkpt>
      <trkpt lat="52.053838" lon="1.303006">
        <ele>22.787289</ele>
        <time>2024-07-21T08:57:34.000Z</time>
      </trkpt>
      <trkpt lat="52.053519" lon="1.300129">
        <ele>24.159825</ele>
        <time>2024-07-21T08:57:54.000Z</time>
      </trkpt>
      <trkpt lat="52.052912" lon="1.294374">
        <ele>28.014212</ele>
        <time>2024-07-21T08:58:34.000Z</time>
      </trkpt>
      <trkpt lat="52.052892" lon="1.294253">
        <ele>27.970272</ele>
        <time>2024-07-21T08:58:35.000Z</time>
      </trkpt>
      <trkpt lat="52.052715" lon="1.293779">
        <ele>27.780526</ele>
        <time>2024-07-21T08:58:39.000Z</time>
      </trkpt>
      <trkpt lat="52.051688" lon="1.291765">
        <ele>26.810636</ele>
        <time>2024-07-21T08:58:57.000Z</time>
      </trkpt>
      <trkpt lat="52.051083" lon="1.290394">
        <ele>26.092188</ele>
        <time>2024-07-21T08:59:09.000Z</time>
      </trkpt>
      <trkpt lat="52.050609" lon="1.289082">
        <ele>25.925314</ele>
        <time>2024-07-21T08:59:19.000Z</time>
      </trkpt>
      <trkpt lat="52.05043" lon="1.288484">
        <ele>25.882588</ele>
        <time>2024-07-21T08:59:24.000Z</time>
      </trkpt>
      <trkpt lat="52.050181" lon="1.286998">
        <ele>25.759168</ele>
        <time>2024-07-21T08:59:35.000Z</time>
      </trkpt>
      <trkpt lat="52.05015" lon="1.286888">
        <ele>25.746294</ele>
        <time>2024-07-21T08:59:36.000Z</time>
      </trkpt>
      <trkpt lat="52.050056" lon="1.286809">
        <ele>25.727633</ele>
        <time>2024-07-21T08:59:37.000Z</time>
      </trkpt>
      <trkpt lat="52.049452" lon="1.286865">
        <ele>25.627529</ele>
        <time>2024-07-21T08:59:44.000Z</time>
      </trkpt>
      <trkpt lat="52.049225" lon="1.286809">
        <ele>25.587664</ele>
        <time>2024-07-21T08:59:47.000Z</time>
      </trkpt>
      <trkpt lat="52.04853" lon="1.286483">
        <ele>25.51835</ele>
        <time>2024-07-21T08:59:55.000Z</time>
      </trkpt>
      <trkpt lat="52.048343" lon="1.286223">
        <ele>25.519265</ele>
        <time>2024-07-21T08:59:58.000Z</time>
      </trkpt>
      <trkpt lat="52.048234" lon="1.28581">
        <ele>25.520325</ele>
        <time>2024-07-21T09:00:01.000Z</time>
      </trkpt>
      <trkpt lat="52.048372" lon="1.279334">
        <ele>25.549234</ele>
        <time>2024-07-21T09:00:45.000Z</time>
      </trkpt>
      <trkpt lat="52.048393" lon="1.278922">
        <ele>25.553072</ele>
        <time>2024-07-21T09:00:48.000Z</time>
      </trkpt>
      <trkpt lat="52.048373" lon="1.278289">
        <ele>25.545816</ele>
        <time>2024-07-21T09:00:52.000Z</time>
      </trkpt>
      <trkpt lat="52.048301" lon="1.277854">
        <ele>25.491788</ele>
        <time>2024-07-21T09:00:55.000Z</time>
      </trkpt>
      <trkpt lat="52.048196" lon="1.277504">
        <ele>25.445399</ele>
        <time>2024-07-21T09:00:58.000Z</time>
      </trkpt>
      <trkpt lat="52.047882" lon="1.277714">
        <ele>25.379023</ele>
        <time>2024-07-21T09:01:02.000Z</time>
      </trkpt>
      <trkpt lat="52.047563" lon="1.277869">
        <ele>25.314987</ele>
        <time>2024-07-21T09:01:06.000Z</time>
      </trkpt>
      <trkpt lat="52.046782" lon="1.27826">
        <ele>24.719556</ele>
        <time>2024-07-21T09:01:15.000Z</time>
      </trkpt>
      <trkpt lat="52.046244" lon="1.27874">
        <ele>23.55149</ele>
        <time>2024-07-21T09:01:22.000Z</time>
      </trkpt>
      <trkpt lat="52.046006" lon="1.278857">
        <ele>23.074459</ele>
        <time>2024-07-21T09:01:25.000Z</time>
      </trkpt>
      <trkpt lat="52.045335" lon="1.278947">
        <ele>21.818368</ele>
        <time>2024-07-21T09:01:32.000Z</time>
      </trkpt>
      <trkpt lat="52.044536" lon="1.278728">
        <ele>18.424378</ele>
        <time>2024-07-21T09:01:41.000Z</time>
      </trkpt>
      <trkpt lat="52.044166" lon="1.278759">
        <ele>16.832485</ele>
        <time>2024-07-21T09:01:45.000Z</time>
      </trkpt>
      <trkpt lat="52.043346" lon="1.27901">
        <ele>13.940508</ele>
        <time>2024-07-21T09:01:54.000Z</time>
      </trkpt>
      <trkpt lat="52.043323" lon="1.279024">
        <ele>13.907423</ele>
        <time>2024-07-21T09:01:54.000Z</time>
      </trkpt>
      <trkpt lat="52.043241" lon="1.279083">
        <ele>13.776985</ele>
        <time>2024-07-21T09:01:55.000Z</time>
      </trkpt>
      <trkpt lat="52.042568" lon="1.279415">
        <ele>12.749324</ele>
        <time>2024-07-21T09:02:03.000Z</time>
      </trkpt>
      <trkpt lat="52.041163" lon="1.279738">
        <ele>13.847694</ele>
        <time>2024-07-21T09:02:19.000Z</time>
      </trkpt>
      <trkpt lat="52.040994" lon="1.279704">
        <ele>14.434277</ele>
        <time>2024-07-21T09:02:21.000Z</time>
      </trkpt>
      <trkpt lat="52.040607" lon="1.279439">
        <ele>15.853687</ele>
        <time>2024-07-21T09:02:26.000Z</time>
      </trkpt>
      <trkpt lat="52.040285" lon="1.279042">
        <ele>17.187391</ele>
        <time>2024-07-21T09:02:30.000Z</time>
      </trkpt>
      <trkpt lat="52.040237" lon="1.278989">
        <ele>17.367535</ele>
        <time>2024-07-21T09:02:31.000Z</time>
      </trkpt>
      <trkpt lat="52.039969" lon="1.278822">
        <ele>18.320741</ele>
        <time>2024-07-21T09:02:34.000Z</time>
      </trkpt>
      <trkpt lat="52.039351" lon="1.278912">
        <ele>20.350783</ele>
        <time>2024-07-21T09:02:41.000Z</time>
      </trkpt>
      <trkpt lat="52.038632" lon="1.278873">
        <ele>22.650205</ele>
        <time>2024-07-21T09:02:49.000Z</time>
      </trkpt>
      <trkpt lat="52.037637" lon="1.278979">
        <ele>24.017876</ele>
        <time>2024-07-21T09:03:00.000Z</time>
      </trkpt>
      <trkpt lat="52.036957" lon="1.279">
        <ele>24.485031</ele>
        <time>2024-07-21T09:03:08.000Z</time>
      </trkpt>
      <trkpt lat="52.035614" lon="1.278873">
        <ele>24.488202</ele>
        <time>2024-07-21T09:03:23.000Z</time>
      </trkpt>
      <trkpt lat="52.035031" lon="1.278837">
        <ele>24.325338</ele>
        <time>2024-07-21T09:03:29.000Z</time>
      </trkpt>
      <trkpt lat="52.034167" lon="1.278856">
        <ele>23.83067</ele>
        <time>2024-07-21T09:03:39.000Z</time>
      </trkpt>
      <trkpt lat="52.03369" lon="1.278963">
        <ele>23.488471</ele>
        <time>2024-07-21T09:03:44.000Z</time>
      </trkpt>
      <trkpt lat="52.033192" lon="1.279244">
        <ele>23.12581</ele>
        <time>2024-07-21T09:03:50.000Z</time>
      </trkpt>
      <trkpt lat="52.032583" lon="1.279888">
        <ele>23.230437</ele>
        <time>2024-07-21T09:03:58.000Z</time>
      </trkpt>
      <trkpt lat="52.032334" lon="1.280066">
        <ele>23.351142</ele>
        <time>2024-07-21T09:04:01.000Z</time>
      </trkpt>
      <trkpt lat="52.031738" lon="1.280265">
        <ele>23.610594</ele>
        <time>2024-07-21T09:04:08.000Z</time>
      </trkpt>
      <trkpt lat="52.030793" lon="1.280384">
        <ele>24.139608</ele>
        <time>2024-07-21T09:04:19.000Z</time>
      </trkpt>
      <trkpt lat="52.029753" lon="1.28058">
        <ele>24.821149</ele>
        <time>2024-07-21T09:04:31.000Z</time>
      </trkpt>
      <trkpt lat="52.026143" lon="1.282512">
        <ele>24.401713</ele>
        <time>2024-07-21T09:05:13.000Z</time>
      </trkpt>
      <trkpt lat="52.025803" lon="1.282742">
        <ele>24.406628</ele>
        <time>2024-07-21T09:05:17.000Z</time>
      </trkpt>
      <trkpt lat="52.024666" lon="1.283633">
        <ele>24.423202</ele>
        <time>2024-07-21T09:05:31.000Z</time>
      </trkpt>
      <trkpt lat="52.022744" lon="1.284998">
        <ele>25.546521</ele>
        <time>2024-07-21T09:05:54.000Z</time>
      </trkpt>
      <trkpt lat="52.021758" lon="1.285594">
        <ele>25.641398</ele>
        <time>2024-07-21T09:06:06.000Z</time>
      </trkpt>
      <trkpt lat="52.019382" lon="1.286644">
        <ele>24.533108</ele>
        <time>2024-07-21T09:06:33.000Z</time>
      </trkpt>
      <trkpt lat="52.018094" lon="1.28706">
        <ele>23.876896</ele>
        <time>2024-07-21T09:06:48.000Z</time>
      </trkpt>
      <trkpt lat="52.017658" lon="1.287117">
        <ele>23.663013</ele>
        <time>2024-07-21T09:06:53.000Z</time>
      </trkpt>
      <trkpt lat="52.015807" lon="1.287133">
        <ele>23.410739</ele>
        <time>2024-07-21T09:07:14.000Z</time>
      </trkpt>
      <trkpt lat="52.015278" lon="1.287296">
        <ele>23.750908</ele>
        <time>2024-07-21T09:07:20.000Z</time>
      </trkpt>
      <trkpt lat="52.014871" lon="1.287593">
        <ele>24.035488</ele>
        <time>2024-07-21T09:07:25.000Z</time>
      </trkpt>
      <trkpt lat="52.013865" lon="1.288519">
        <ele>24.706289</ele>
        <time>2024-07-21T09:07:38.000Z</time>
      </trkpt>
      <trkpt lat="52.013508" lon="1.288735">
        <ele>24.903233</ele>
        <time>2024-07-21T09:07:42.000Z</time>
      </trkpt>
      <trkpt lat="52.012874" lon="1.289001">
        <ele>25.250833</ele>
        <time>2024-07-21T09:07:49.000Z</time>
      </trkpt>
      <trkpt lat="52.010372" lon="1.289694">
        <ele>25.148445</ele>
        <time>2024-07-21T09:08:17.000Z</time>
      </trkpt>
      <trkpt lat="52.008685" lon="1.290558">
        <ele>24.526966</ele>
        <time>2024-07-21T09:08:37.000Z</time>
      </trkpt>
      <trkpt lat="52.00781" lon="1.290792">
        <ele>24.329888</ele>
        <time>2024-07-21T09:08:47.000Z</time>
      </trkpt>
      <trkpt lat="52.007635" lon="1.290881">
        <ele>24.28618</ele>
        <time>2024-07-21T09:08:49.000Z</time>
      </trkpt>
      <trkpt lat="52.006473" lon="1.291361">
        <ele>24.033957</ele>
        <time>2024-07-21T09:09:02.000Z</time>
      </trkpt>
      <trkpt lat="52.006398" lon="1.291516">
        <ele>24.00903</ele>
        <time>2024-07-21T09:09:03.000Z</time>
      </trkpt>
      <trkpt lat="52.005758" lon="1.291841">
        <ele>23.871904</ele>
        <time>2024-07-21T09:09:10.000Z</time>
      </trkpt>
      <trkpt lat="52.005886" lon="1.292613">
        <ele>23.645087</ele>
        <time>2024-07-21T09:09:15.000Z</time>
      </trkpt>
      <trkpt lat="52.005897" lon="1.29372">
        <ele>23.234269</ele>
        <time>2024-07-21T09:09:23.000Z</time>
      </trkpt>
      <trkpt lat="52.005637" lon="1.29629">
        <ele>22.575108</ele>
        <time>2024-07-21T09:09:41.000Z</time>
      </trkpt>
      <trkpt lat="52.005574" lon="1.2993">
        <ele>22.360619</ele>
        <time>2024-07-21T09:10:02.000Z</time>
      </trkpt>
      <trkpt lat="52.005414" lon="1.300311">
        <ele>22.365453</ele>
        <time>2024-07-21T09:10:09.000Z</time>
      </trkpt>
      <trkpt lat="52.004979" lon="1.303631">
        <ele>21.861506</ele>
        <time>2024-07-21T09:10:32.000Z</time>
      </trkpt>
      <trkpt lat="52.004861" lon="1.304246">
        <ele>21.765919</ele>
        <time>2024-07-21T09:10:36.000Z</time>
      </trkpt>
      <trkpt lat="52.004422" lon="1.305466">
        <ele>21.560596</ele>
        <time>2024-07-21T09:10:46.000Z</time>
      </trkpt>
      <trkpt lat="52.00422" lon="1.306794">
        <ele>21.471708</ele>
        <time>2024-07-21T09:10:55.000Z</time>
      </trkpt>
      <trkpt lat="52.003243" lon="1.309934">
        <ele>21.805767</ele>
        <time>2024-07-21T09:11:19.000Z</time>
      </trkpt>
      <trkpt lat="52.003097" lon="1.310633">
        <ele>21.895133</ele>
        <time>2024-07-21T09:11:24.000Z</time>
      </trkpt>
      <trkpt lat="52.003077" lon="1.311451">
        <ele>21.992308</ele>
        <time>2024-07-21T09:11:30.000Z</time>
      </trkpt>
      <trkpt lat="52.003204" lon="1.312245">
        <ele>22.084189</ele>
        <time>2024-07-21T09:11:36.000Z</time>
      </trkpt>
      <trkpt lat="52.00336" lon="1.313763">
        <ele>22.255383</ele>
        <time>2024-07-21T09:11:47.000Z</time>
      </trkpt>
      <trkpt lat="52.003365" lon="1.314227">
        <ele>22.306301</ele>
        <time>2024-07-21T09:11:50.000Z</time>
      </trkpt>
      <trkpt lat="52.003236" lon="1.314223">
        <ele>22.329214</ele>
        <time>2024-07-21T09:11:51.000Z</time>
      </trkpt>
      <trkpt lat="52.000867" lon="1.313473">
        <ele>23.057634</ele>
        <time>2024-07-21T09:12:18.000Z</time>
      </trkpt>
      <trkpt lat="52.00023" lon="1.313181">
        <ele>23.301639</ele>
        <time>2024-07-21T09:12:25.000Z</time>
      </trkpt>
      <trkpt lat="51.999216" lon="1.313495">
        <ele>23.481206</ele>
        <time>2024-07-21T09:12:36.000Z</time>
      </trkpt>
      <trkpt lat="51.998384" lon="1.313505">
        <ele>23.353758</ele>
        <time>2024-07-21T09:12:45.000Z</time>
      </trkpt>
      <trkpt lat="51.998144" lon="1.313515">
        <ele>23.318948</ele>
        <time>2024-07-21T09:12:48.000Z</time>
      </trkpt>
      <trkpt lat="51.996606" lon="1.31353">
        <ele>23.053399</ele>
        <time>2024-07-21T09:13:05.000Z</time>
      </trkpt>
      <trkpt lat="51.995952" lon="1.313438">
        <ele>22.973569</ele>
        <time>2024-07-21T09:13:12.000Z</time>
      </trkpt>
      <trkpt lat="51.99572" lon="1.313403">
        <ele>23.072246</ele>
        <time>2024-07-21T09:13:15.000Z</time>
      </trkpt>
      <trkpt lat="51.995363" lon="1.313517">
        <ele>23.222309</ele>
        <time>2024-07-21T09:13:19.000Z</time>
      </trkpt>
      <trkpt lat="51.994758" lon="1.314294">
        <ele>23.543175</ele>
        <time>2024-07-21T09:13:28.000Z</time>
      </trkpt>
      <trkpt lat="51.992172" lon="1.317814">
        <ele>24.371013</ele>
        <time>2024-07-21T09:14:06.000Z</time>
      </trkpt>
      <trkpt lat="51.9919" lon="1.318572">
        <ele>24.4007</ele>
        <time>2024-07-21T09:14:12.000Z</time>
      </trkpt>
      <trkpt lat="51.991593" lon="1.319192">
        <ele>24.11415</ele>
        <time>2024-07-21T09:14:17.000Z</time>
      </trkpt>
      <trkpt lat="51.991154" lon="1.319506">
        <ele>23.804109</ele>
        <time>2024-07-21T09:14:22.000Z</time>
      </trkpt>
      <trkpt lat="51.990792" lon="1.319467">
        <ele>23.57226</ele>
        <time>2024-07-21T09:14:26.000Z</time>
      </trkpt>
      <trkpt lat="51.990326" lon="1.319338">
        <ele>23.260356</ele>
        <time>2024-07-21T09:14:31.000Z</time>
      </trkpt>
      <trkpt lat="51.990206" lon="1.319422">
        <ele>23.211252</ele>
        <time>2024-07-21T09:14:32.000Z</time>
      </trkpt>
      <trkpt lat="51.989924" lon="1.319408">
        <ele>23.129351</ele>
        <time>2024-07-21T09:14:35.000Z</time>
      </trkpt>
      <trkpt lat="51.989709" lon="1.319153">
        <ele>23.053986</ele>
        <time>2024-07-21T09:14:38.000Z</time>
      </trkpt>
      <trkpt lat="51.989636" lon="1.318959">
        <ele>23.010431</ele>
        <time>2024-07-21T09:14:40.000Z</time>
      </trkpt>
      <trkpt lat="51.989491" lon="1.318503">
        <ele>22.916261</ele>
        <time>2024-07-21T09:14:44.000Z</time>
      </trkpt>
      <trkpt lat="51.989453" lon="1.31831">
        <ele>22.877283</ele>
        <time>2024-07-21T09:14:45.000Z</time>
      </trkpt>
      <trkpt lat="51.989467" lon="1.3178">
        <ele>22.786648</ele>
        <time>2024-07-21T09:14:48.000Z</time>
      </trkpt>
      <trkpt lat="51.989506" lon="1.317707">
        <ele>22.764948</ele>
        <time>2024-07-21T09:14:49.000Z</time>
      </trkpt>
      <trkpt lat="51.989658" lon="1.317117">
        <ele>22.729162</ele>
        <time>2024-07-21T09:14:53.000Z</time>
      </trkpt>
      <trkpt lat="51.989655" lon="1.316626">
        <ele>22.758166</ele>
        <time>2024-07-21T09:14:56.000Z</time>
      </trkpt>
      <trkpt lat="51.989205" lon="1.314397">
        <ele>22.903947</ele>
        <time>2024-07-21T09:15:12.000Z</time>
      </trkpt>
      <trkpt lat="51.988618" lon="1.312595">
        <ele>23.080849</ele>
        <time>2024-07-21T09:15:26.000Z</time>
      </trkpt>
      <trkpt lat="51.98827" lon="1.31188">
        <ele>23.233101</ele>
        <time>2024-07-21T09:15:32.000Z</time>
      </trkpt>
      <trkpt lat="51.988052" lon="1.311587">
        <ele>23.387928</ele>
        <time>2024-07-21T09:15:35.000Z</time>
      </trkpt>
      <trkpt lat="51.987925" lon="1.311508">
        <ele>23.469205</ele>
        <time>2024-07-21T09:15:37.000Z</time>
      </trkpt>
      <trkpt lat="51.987595" lon="1.311458">
        <ele>23.650673</ele>
        <time>2024-07-21T09:15:41.000Z</time>
      </trkpt>
      <trkpt lat="51.987222" lon="1.311797">
        <ele>23.890127</ele>
        <time>2024-07-21T09:15:46.000Z</time>
      </trkpt>
      <trkpt lat="51.98686" lon="1.312123">
        <ele>24.113989</ele>
        <time>2024-07-21T09:15:51.000Z</time>
      </trkpt>
      <trkpt lat="51.986218" lon="1.312779">
        <ele>24.705497</ele>
        <time>2024-07-21T09:15:59.000Z</time>
      </trkpt>
      <trkpt lat="51.986027" lon="1.312985">
        <ele>24.87652</ele>
        <time>2024-07-21T09:16:02.000Z</time>
      </trkpt>
      <trkpt lat="51.985243" lon="1.313736">
        <ele>25.530483</ele>
        <time>2024-07-21T09:16:12.000Z</time>
      </trkpt>
      <trkpt lat="51.984862" lon="1.313947">
        <ele>25.515067</ele>
        <time>2024-07-21T09:16:16.000Z</time>
      </trkpt>
      <trkpt lat="51.983935" lon="1.314488">
        <ele>25.476065</ele>
        <time>2024-07-21T09:16:27.000Z</time>
      </trkpt>
      <trkpt lat="51.983638" lon="1.314705">
        <ele>25.463409</ele>
        <time>2024-07-21T09:16:31.000Z</time>
      </trkpt>
      <trkpt lat="51.983441" lon="1.314873">
        <ele>25.332826</ele>
        <time>2024-07-21T09:16:33.000Z</time>
      </trkpt>
      <trkpt lat="51.982443" lon="1.315906">
        <ele>24.57853</ele>
        <time>2024-07-21T09:16:46.000Z</time>
      </trkpt>
      <trkpt lat="51.98216" lon="1.316217">
        <ele>24.369587</ele>
        <time>2024-07-21T09:16:50.000Z</time>
      </trkpt>
      <trkpt lat="51.981809" lon="1.316609">
        <ele>24.060846</ele>
        <time>2024-07-21T09:16:55.000Z</time>
      </trkpt>
      <trkpt lat="51.981771" lon="1.31666">
        <ele>24.022137</ele>
        <time>2024-07-21T09:16:56.000Z</time>
      </trkpt>
      <trkpt lat="51.981674" lon="1.316778">
        <ele>23.937186</ele>
        <time>2024-07-21T09:16:57.000Z</time>
      </trkpt>
      <trkpt lat="51.981517" lon="1.316978">
        <ele>23.790924</ele>
        <time>2024-07-21T09:16:59.000Z</time>
      </trkpt>
      <trkpt lat="51.981043" lon="1.317497">
        <ele>23.379557</ele>
        <time>2024-07-21T09:17:05.000Z</time>
      </trkpt>
      <trkpt lat="51.98062" lon="1.317967">
        <ele>22.998921</ele>
        <time>2024-07-21T09:17:11.000Z</time>
      </trkpt>
      <trkpt lat="51.98039" lon="1.318189">
        <ele>22.850933</ele>
        <time>2024-07-21T09:17:14.000Z</time>
      </trkpt>
      <trkpt lat="51.980168" lon="1.3184">
        <ele>22.692523</ele>
        <time>2024-07-21T09:17:17.000Z</time>
      </trkpt>
      <trkpt lat="51.979132" lon="1.319954">
        <ele>21.787027</ele>
        <time>2024-07-21T09:17:33.000Z</time>
      </trkpt>
      <trkpt lat="51.978784" lon="1.320566">
        <ele>21.271345</ele>
        <time>2024-07-21T09:17:39.000Z</time>
      </trkpt>
      <trkpt lat="51.978615" lon="1.320832">
        <ele>21.047087</ele>
        <time>2024-07-21T09:17:42.000Z</time>
      </trkpt>
      <trkpt lat="51.978043" lon="1.322246">
        <ele>20.04546</ele>
        <time>2024-07-21T09:17:54.000Z</time>
      </trkpt>
      <trkpt lat="51.977852" lon="1.322831">
        <ele>19.774864</ele>
        <time>2024-07-21T09:17:59.000Z</time>
      </trkpt>
      <trkpt lat="51.977504" lon="1.323936">
        <ele>19.274284</ele>
        <time>2024-07-21T09:18:08.000Z</time>
      </trkpt>
      <trkpt lat="51.977482" lon="1.323978">
        <ele>19.250074</ele>
        <time>2024-07-21T09:18:08.000Z</time>
      </trkpt>
      <trkpt lat="51.977366" lon="1.324178">
        <ele>19.149086</ele>
        <time>2024-07-21T09:18:10.000Z</time>
      </trkpt>
      <trkpt lat="51.97711" lon="1.325124">
        <ele>18.974828</ele>
        <time>2024-07-21T09:18:17.000Z</time>
      </trkpt>
      <trkpt lat="51.976955" lon="1.325683">
        <ele>18.999091</ele>
        <time>2024-07-21T09:18:21.000Z</time>
      </trkpt>
      <trkpt lat="51.976896" lon="1.325851">
        <ele>19.00666</ele>
        <time>2024-07-21T09:18:22.000Z</time>
      </trkpt>
      <trkpt lat="51.976475" lon="1.32728">
        <ele>19.078631</ele>
        <time>2024-07-21T09:18:33.000Z</time>
      </trkpt>
      <trkpt lat="51.976146" lon="1.328321">
        <ele>19.834766</ele>
        <time>2024-07-21T09:18:41.000Z</time>
      </trkpt>
      <trkpt lat="51.976123" lon="1.328438">
        <ele>19.91977</ele>
        <time>2024-07-21T09:18:42.000Z</time>
      </trkpt>
      <trkpt lat="51.975957" lon="1.328942">
        <ele>20.280908</ele>
        <time>2024-07-21T09:18:46.000Z</time>
      </trkpt>
      <trkpt lat="51.975841" lon="1.329413">
        <ele>20.601469</ele>
        <time>2024-07-21T09:18:49.000Z</time>
      </trkpt>
      <trkpt lat="51.975752" lon="1.329755">
        <ele>20.838203</ele>
        <time>2024-07-21T09:18:52.000Z</time>
      </trkpt>
      <trkpt lat="51.97563" lon="1.330154">
        <ele>21.097518</ele>
        <time>2024-07-21T09:18:55.000Z</time>
      </trkpt>
      <trkpt lat="51.975636" lon="1.330185">
        <ele>21.121873</ele>
        <time>2024-07-21T09:18:55.000Z</time>
      </trkpt>
      <trkpt lat="51.975611" lon="1.330236">
        <ele>21.143873</ele>
        <time>2024-07-21T09:18:55.000Z</time>
      </trkpt>
      <trkpt lat="51.975359" lon="1.331167">
        <ele>21.703673</ele>
        <time>2024-07-21T09:19:02.000Z</time>
      </trkpt>
      <trkpt lat="51.975087" lon="1.332141">
        <ele>22.290694</ele>
        <time>2024-07-21T09:19:09.000Z</time>
      </trkpt>
      <trkpt lat="51.974963" lon="1.33257">
        <ele>22.534535</ele>
        <time>2024-07-21T09:19:12.000Z</time>
      </trkpt>
      <trkpt lat="51.974578" lon="1.333761">
        <ele>22.610884</ele>
        <time>2024-07-21T09:19:21.000Z</time>
      </trkpt>
      <trkpt lat="51.974397" lon="1.334198">
        <ele>22.640471</ele>
        <time>2024-07-21T09:19:25.000Z</time>
      </trkpt>
      <trkpt lat="51.974006" lon="1.334991">
        <ele>22.699295</ele>
        <time>2024-07-21T09:19:32.000Z</time>
      </trkpt>
      <trkpt lat="51.973819" lon="1.33535">
        <ele>22.555734</ele>
        <time>2024-07-21T09:19:35.000Z</time>
      </trkpt>
      <trkpt lat="51.973768" lon="1.335435">
        <ele>22.514258</ele>
        <time>2024-07-21T09:19:36.000Z</time>
      </trkpt>
      <trkpt lat="51.973258" lon="1.336657">
        <ele>22.037342</ele>
        <time>2024-07-21T09:19:46.000Z</time>
      </trkpt>
      <trkpt lat="51.97321" lon="1.336778">
        <ele>21.992079</ele>
        <time>2024-07-21T09:19:47.000Z</time>
      </trkpt>
      <trkpt lat="51.972984" lon="1.337288">
        <ele>21.790187</ele>
        <time>2024-07-21T09:19:51.000Z</time>
      </trkpt>
      <trkpt lat="51.972832" lon="1.337662">
        <ele>21.517714</ele>
        <time>2024-07-21T09:19:54.000Z</time>
      </trkpt>
      <trkpt lat="51.973923" lon="1.338955">
        <ele>20.057954</ele>
        <time>2024-07-21T09:20:09.000Z</time>
      </trkpt>
      <trkpt lat="51.973934" lon="1.338991">
        <ele>20.016582</ele>
        <time>2024-07-21T09:20:09.000Z</time>
      </trkpt>
      <trkpt lat="51.974455" lon="1.339821">
        <ele>19.48324</ele>
        <time>2024-07-21T09:20:17.000Z</time>
      </trkpt>
      <trkpt lat="51.974525" lon="1.339978">
        <ele>19.411984</ele>
        <time>2024-07-21T09:20:18.000Z</time>
      </trkpt>
      <trkpt lat="51.97486" lon="1.340614">
        <ele>19.101998</ele>
        <time>2024-07-21T09:20:24.000Z</time>
      </trkpt>
      <trkpt lat="51.975086" lon="1.34114">
        <ele>18.862016</ele>
        <time>2024-07-21T09:20:28.000Z</time>
      </trkpt>
      <trkpt lat="51.975402" lon="1.341696">
        <ele>18.506737</ele>
        <time>2024-07-21T09:20:33.000Z</time>
      </trkpt>
      <trkpt lat="51.975776" lon="1.342014">
        <ele>18.105225</ele>
        <time>2024-07-21T09:20:38.000Z</time>
      </trkpt>
      <trkpt lat="51.976612" lon="1.342414">
        <ele>17.29426</ele>
        <time>2024-07-21T09:20:48.000Z</time>
      </trkpt>
      <trkpt lat="51.97701" lon="1.342503">
        <ele>16.826965</ele>
        <time>2024-07-21T09:20:52.000Z</time>
      </trkpt>
      <trkpt lat="51.977424" lon="1.342887">
        <ele>16.027907</ele>
        <time>2024-07-21T09:20:57.000Z</time>
      </trkpt>
      <trkpt lat="51.978214" lon="1.343751">
        <ele>14.431774</ele>
        <time>2024-07-21T09:21:08.000Z</time>
      </trkpt>
      <trkpt lat="51.978947" lon="1.344827">
        <ele>12.928716</ele>
        <time>2024-07-21T09:21:19.000Z</time>
      </trkpt>
      <trkpt lat="51.979182" lon="1.345134">
        <ele>12.469055</ele>
        <time>2024-07-21T09:21:22.000Z</time>
      </trkpt>
      <trkpt lat="51.979268" lon="1.345143">
        <ele>12.348107</ele>
        <time>2024-07-21T09:21:23.000Z</time>
      </trkpt>
      <trkpt lat="51.97912" lon="1.346214">
        <ele>11.340622</ele>
        <time>2024-07-21T09:21:31.000Z</time>
      </trkpt>
      <trkpt lat="51.979119" lon="1.347143">
        <ele>11.429975</ele>
        <time>2024-07-21T09:21:37.000Z</time>
      </trkpt>
      <trkpt lat="51.979155" lon="1.347518">
        <ele>11.470034</ele>
        <time>2024-07-21T09:21:40.000Z</time>
      </trkpt>
      <trkpt lat="51.979351" lon="1.348053">
        <ele>11.537406</ele>
        <time>2024-07-21T09:21:44.000Z</time>
      </trkpt>
      <trkpt lat="51.97976" lon="1.348631">
        <ele>11.631117</ele>
        <time>2024-07-21T09:21:50.000Z</time>
      </trkpt>
      <trkpt lat="51.980609" lon="1.348827">
        <ele>12.271764</ele>
        <time>2024-07-21T09:22:00.000Z</time>
      </trkpt>
      <trkpt lat="51.981448" lon="1.349145">
        <ele>12.955386</ele>
        <time>2024-07-21T09:22:10.000Z</time>
      </trkpt>
      <trkpt lat="51.981928" lon="1.349415">
        <ele>12.748071</ele>
        <time>2024-07-21T09:22:16.000Z</time>
      </trkpt>
      <trkpt lat="51.981996" lon="1.349556">
        <ele>12.6458</ele>
        <time>2024-07-21T09:22:17.000Z</time>
      </trkpt>
      <trkpt lat="51.981627" lon="1.350583">
        <ele>11.965138</ele>
        <time>2024-07-21T09:22:25.000Z</time>
      </trkpt>
      <trkpt lat="51.981522" lon="1.351407">
        <ele>11.478317</ele>
        <time>2024-07-21T09:22:31.000Z</time>
      </trkpt>
      <trkpt lat="51.981611" lon="1.354662">
        <ele>6.170972</ele>
        <time>2024-07-21T09:22:53.000Z</time>
      </trkpt>
      <trkpt lat="51.981534" lon="1.355016">
        <ele>5.803759</ele>
        <time>2024-07-21T09:22:56.000Z</time>
      </trkpt>
      <trkpt lat="51.981544" lon="1.355706">
        <ele>5.138932</ele>
        <time>2024-07-21T09:23:01.000Z</time>
      </trkpt>
      <trkpt lat="51.981695" lon="1.356844">
        <ele>4.017197</ele>
        <time>2024-07-21T09:23:09.000Z</time>
      </trkpt>
      <trkpt lat="51.98167" lon="1.357111">
        <ele>3.744993</ele>
        <time>2024-07-21T09:23:11.000Z</time>
      </trkpt>
      <trkpt lat="51.9815" lon="1.357467">
        <ele>3.621822</ele>
        <time>2024-07-21T09:23:14.000Z</time>
      </trkpt>
      <trkpt lat="51.981337" lon="1.357653">
        <ele>3.73043</ele>
        <time>2024-07-21T09:23:16.000Z</time>
      </trkpt>
      <trkpt lat="51.981082" lon="1.357737">
        <ele>3.884805</ele>
        <time>2024-07-21T09:23:19.000Z</time>
      </trkpt>
      <trkpt lat="51.980852" lon="1.357716">
        <ele>4.01865</ele>
        <time>2024-07-21T09:23:22.000Z</time>
      </trkpt>
      <trkpt lat="51.979731" lon="1.357301">
        <ele>4.965508</ele>
        <time>2024-07-21T09:23:35.000Z</time>
      </trkpt>
      <trkpt lat="51.979525" lon="1.357331">
        <ele>5.435491</ele>
        <time>2024-07-21T09:23:37.000Z</time>
      </trkpt>
      <trkpt lat="51.979296" lon="1.357481">
        <ele>5.951937</ele>
        <time>2024-07-21T09:23:40.000Z</time>
      </trkpt>
      <trkpt lat="51.978339" lon="1.3591">
        <ele>8.982947</ele>
        <time>2024-07-21T09:23:55.000Z</time>
      </trkpt>
      <trkpt lat="51.978053" lon="1.359912">
        <ele>10.356192</ele>
        <time>2024-07-21T09:24:01.000Z</time>
      </trkpt>
      <trkpt lat="51.977746" lon="1.360537">
        <ele>11.499117</ele>
        <time>2024-07-21T09:24:06.000Z</time>
      </trkpt>
      <trkpt lat="51.977655" lon="1.360961">
        <ele>12.158684</ele>
        <time>2024-07-21T09:24:09.000Z</time>
      </trkpt>
      <trkpt lat="51.977844" lon="1.361571">
        <ele>12.96744</ele>
        <time>2024-07-21T09:24:14.000Z</time>
      </trkpt>
      <trkpt lat="51.97787" lon="1.362189">
        <ele>13.545108</ele>
        <time>2024-07-21T09:24:18.000Z</time>
      </trkpt>
      <trkpt lat="51.977947" lon="1.363589">
        <ele>14.838928</ele>
        <time>2024-07-21T09:24:28.000Z</time>
      </trkpt>
      <trkpt lat="51.978067" lon="1.365262">
        <ele>16.034853</ele>
        <time>2024-07-21T09:24:40.000Z</time>
      </trkpt>
      <trkpt lat="51.978427" lon="1.367753">
        <ele>17.348128</ele>
        <time>2024-07-21T09:24:58.000Z</time>
      </trkpt>
      <trkpt lat="51.978451" lon="1.368058">
        <ele>17.442474</ele>
        <time>2024-07-21T09:25:00.000Z</time>
      </trkpt>
      <trkpt lat="51.978479" lon="1.368339">
        <ele>17.522343</ele>
        <time>2024-07-21T09:25:02.000Z</time>
      </trkpt>
      <trkpt lat="51.978621" lon="1.369236">
        <ele>17.789306</ele>
        <time>2024-07-21T09:25:08.000Z</time>
      </trkpt>
      <trkpt lat="51.978769" lon="1.3698">
        <ele>17.968631</ele>
        <time>2024-07-21T09:25:12.000Z</time>
      </trkpt>
      <trkpt lat="51.978983" lon="1.370381">
        <ele>17.905923</ele>
        <time>2024-07-21T09:25:17.000Z</time>
      </trkpt>
      <trkpt lat="51.978953" lon="1.370658">
        <ele>17.868885</ele>
        <time>2024-07-21T09:25:19.000Z</time>
      </trkpt>
      <trkpt lat="51.978851" lon="1.37079">
        <ele>17.837102</ele>
        <time>2024-07-21T09:25:20.000Z</time>
      </trkpt>
      <trkpt lat="51.977941" lon="1.371135">
        <ele>17.632371</ele>
        <time>2024-07-21T09:25:30.000Z</time>
      </trkpt>
      <trkpt lat="51.977784" lon="1.37128">
        <ele>17.591439</ele>
        <time>2024-07-21T09:25:32.000Z</time>
      </trkpt>
      <trkpt lat="51.977699" lon="1.371448">
        <ele>17.45857</ele>
        <time>2024-07-21T09:25:33.000Z</time>
      </trkpt>
      <trkpt lat="51.97768" lon="1.371881">
        <ele>17.171531</ele>
        <time>2024-07-21T09:25:36.000Z</time>
      </trkpt>
      <trkpt lat="51.97784" lon="1.373269">
        <ele>16.262622</ele>
        <time>2024-07-21T09:25:46.000Z</time>
      </trkpt>
      <trkpt lat="51.977938" lon="1.373619">
        <ele>16.007923</ele>
        <time>2024-07-21T09:25:49.000Z</time>
      </trkpt>
      <trkpt lat="51.978234" lon="1.374376">
        <ele>15.379601</ele>
        <time>2024-07-21T09:25:55.000Z</time>
      </trkpt>
      <trkpt lat="51.978314" lon="1.374968">
        <ele>14.945633</ele>
        <time>2024-07-21T09:25:59.000Z</time>
      </trkpt>
      <trkpt lat="51.978204" lon="1.37584">
        <ele>14.286855</ele>
        <time>2024-07-21T09:26:05.000Z</time>
      </trkpt>
      <trkpt lat="51.977632" lon="1.377662">
        <ele>12.672123</ele>
        <time>2024-07-21T09:26:19.000Z</time>
      </trkpt>
      <trkpt lat="51.977486" lon="1.378367">
        <ele>12.046144</ele>
        <time>2024-07-21T09:26:24.000Z</time>
      </trkpt>
      <trkpt lat="51.977558" lon="1.379878">
        <ele>10.787143</ele>
        <time>2024-07-21T09:26:34.000Z</time>
      </trkpt>
      <trkpt lat="51.977555" lon="1.380242">
        <ele>10.491701</ele>
        <time>2024-07-21T09:26:36.000Z</time>
      </trkpt>
      <trkpt lat="51.97744" lon="1.380441">
        <ele>10.277046</ele>
        <time>2024-07-21T09:26:38.000Z</time>
      </trkpt>
      <trkpt lat="51.977299" lon="1.380249">
        <ele>10.031893</ele>
        <time>2024-07-21T09:26:40.000Z</time>
      </trkpt>
      <trkpt lat="51.977162" lon="1.380163">
        <ele>9.828056</ele>
        <time>2024-07-21T09:26:42.000Z</time>
      </trkpt>
      <trkpt lat="51.976751" lon="1.380149">
        <ele>9.292862</ele>
        <time>2024-07-21T09:26:47.000Z</time>
      </trkpt>
      <trkpt lat="51.976688" lon="1.380156">
        <ele>9.208296</ele>
        <time>2024-07-21T09:26:48.000Z</time>
      </trkpt>
      <trkpt lat="51.976354" lon="1.380141">
        <ele>8.756457</ele>
        <time>2024-07-21T09:26:52.000Z</time>
      </trkpt>
      <trkpt lat="51.975684" lon="1.380062">
        <ele>7.658329</ele>
        <time>2024-07-21T09:26:59.000Z</time>
      </trkpt>
      <trkpt lat="51.975039" lon="1.379811">
        <ele>6.533167</ele>
        <time>2024-07-21T09:27:06.000Z</time>
      </trkpt>
      <trkpt lat="51.974677" lon="1.379585">
        <ele>5.888898</ele>
        <time>2024-07-21T09:27:10.000Z</time>
      </trkpt>
      <trkpt lat="51.974287" lon="1.379208">
        <ele>5.569897</ele>
        <time>2024-07-21T09:27:15.000Z</time>
      </trkpt>
      <trkpt lat="51.973504" lon="1.378353">
        <ele>5.265051</ele>
        <time>2024-07-21T09:27:25.000Z</time>
      </trkpt>
      <trkpt lat="51.973434" lon="1.378263">
        <ele>5.237069</ele>
        <time>2024-07-21T09:27:26.000Z</time>
      </trkpt>
      <trkpt lat="51.97279" lon="1.37755">
        <ele>5.566496</ele>
        <time>2024-07-21T09:27:35.000Z</time>
      </trkpt>
      <trkpt lat="51.971384" lon="1.376002">
        <ele>8.18434</ele>
        <time>2024-07-21T09:27:54.000Z</time>
      </trkpt>
      <trkpt lat="51.971224" lon="1.375816">
        <ele>8.683459</ele>
        <time>2024-07-21T09:27:56.000Z</time>
      </trkpt>
      <trkpt lat="51.970687" lon="1.375218">
        <ele>10.326572</ele>
        <time>2024-07-21T09:28:03.000Z</time>
      </trkpt>
      <trkpt lat="51.970381" lon="1.374673">
        <ele>11.499235</ele>
        <time>2024-07-21T09:28:08.000Z</time>
      </trkpt>
      <trkpt lat="51.969964" lon="1.373516">
        <ele>13.641889</ele>
        <time>2024-07-21T09:28:17.000Z</time>
      </trkpt>
      <trkpt lat="51.969626" lon="1.372485">
        <ele>15.561341</ele>
        <time>2024-07-21T09:28:25.000Z</time>
      </trkpt>
      <trkpt lat="51.969425" lon="1.37164">
        <ele>16.971196</ele>
        <time>2024-07-21T09:28:31.000Z</time>
      </trkpt>
      <trkpt lat="51.969177" lon="1.369876">
        <ele>18.434509</ele>
        <time>2024-07-21T09:28:43.000Z</time>
      </trkpt>
      <trkpt lat="51.969155" lon="1.369804">
        <ele>18.491078</ele>
        <time>2024-07-21T09:28:44.000Z</time>
      </trkpt>
      <trkpt lat="51.968965" lon="1.368412">
        <ele>19.132388</ele>
        <time>2024-07-21T09:28:54.000Z</time>
      </trkpt>
      <trkpt lat="51.968899" lon="1.368023">
        <ele>19.037205</ele>
        <time>2024-07-21T09:28:57.000Z</time>
      </trkpt>
      <trkpt lat="51.968779" lon="1.367161">
        <ele>18.816121</ele>
        <time>2024-07-21T09:29:03.000Z</time>
      </trkpt>
      <trkpt lat="51.968089" lon="1.36748">
        <ele>18.5261</ele>
        <time>2024-07-21T09:29:11.000Z</time>
      </trkpt>
      <trkpt lat="51.967259" lon="1.367905">
        <ele>16.406794</ele>
        <time>2024-07-21T09:29:21.000Z</time>
      </trkpt>
      <trkpt lat="51.966633" lon="1.368235">
        <ele>14.819735</ele>
        <time>2024-07-21T09:29:28.000Z</time>
      </trkpt>
      <trkpt lat="51.966353" lon="1.368449">
        <ele>14.02932</ele>
        <time>2024-07-21T09:29:31.000Z</time>
      </trkpt>
      <trkpt lat="51.965946" lon="1.368653">
        <ele>12.636183</ele>
        <time>2024-07-21T09:29:36.000Z</time>
      </trkpt>
      <trkpt lat="51.965525" lon="1.368787">
        <ele>11.273878</ele>
        <time>2024-07-21T09:29:41.000Z</time>
      </trkpt>
      <trkpt lat="51.96537" lon="1.368774">
        <ele>10.733619</ele>
        <time>2024-07-21T09:29:43.000Z</time>
      </trkpt>
      <trkpt lat="51.965215" lon="1.368679">
        <ele>10.225021</ele>
        <time>2024-07-21T09:29:45.000Z</time>
      </trkpt>
      <trkpt lat="51.964881" lon="1.368283">
        <ele>8.879536</ele>
        <time>2024-07-21T09:29:50.000Z</time>
      </trkpt>
      <trkpt lat="51.964631" lon="1.368046">
        <ele>8.041533</ele>
        <time>2024-07-21T09:29:53.000Z</time>
      </trkpt>
      <trkpt lat="51.964539" lon="1.367936">
        <ele>7.726177</ele>
        <time>2024-07-21T09:29:54.000Z</time>
      </trkpt>
      <trkpt lat="51.964171" lon="1.367543">
        <ele>6.611094</ele>
        <time>2024-07-21T09:29:59.000Z</time>
      </trkpt>
      <trkpt lat="51.963893" lon="1.367233">
        <ele>5.776891</ele>
        <time>2024-07-21T09:30:03.000Z</time>
      </trkpt>
      <trkpt lat="51.96381" lon="1.367036">
        <ele>5.373228</ele>
        <time>2024-07-21T09:30:05.000Z</time>
      </trkpt>
      <trkpt lat="51.963662" lon="1.366026">
        <ele>3.787808</ele>
        <time>2024-07-21T09:30:12.000Z</time>
      </trkpt>
      <trkpt lat="51.963484" lon="1.365118">
        <ele>3.660415</ele>
        <time>2024-07-21T09:30:19.000Z</time>
      </trkpt>
      <trkpt lat="51.963141" lon="1.363352">
        <ele>3.414814</ele>
        <time>2024-07-21T09:30:32.000Z</time>
      </trkpt>
      <trkpt lat="51.962997" lon="1.362821">
        <ele>3.931467</ele>
        <time>2024-07-21T09:30:36.000Z</time>
      </trkpt>
      <trkpt lat="51.962535" lon="1.361683">
        <ele>5.447697</ele>
        <time>2024-07-21T09:30:45.000Z</time>
      </trkpt>
      <trkpt lat="51.962413" lon="1.361224">
        <ele>5.998717</ele>
        <time>2024-07-21T09:30:48.000Z</time>
      </trkpt>
      <trkpt lat="51.962355" lon="1.360965">
        <ele>6.301226</ele>
        <time>2024-07-21T09:30:50.000Z</time>
      </trkpt>
      <trkpt lat="51.962372" lon="1.359939">
        <ele>8.19562</ele>
        <time>2024-07-21T09:30:57.000Z</time>
      </trkpt>
      <trkpt lat="51.962398" lon="1.358974">
        <ele>10.335012</ele>
        <time>2024-07-21T09:31:04.000Z</time>
      </trkpt>
      <trkpt lat="51.96248" lon="1.358141">
        <ele>12.166247</ele>
        <time>2024-07-21T09:31:10.000Z</time>
      </trkpt>
      <trkpt lat="51.962514" lon="1.357607">
        <ele>13.021023</ele>
        <time>2024-07-21T09:31:14.000Z</time>
      </trkpt>
      <trkpt lat="51.962616" lon="1.356849">
        <ele>13.18948</ele>
        <time>2024-07-21T09:31:19.000Z</time>
      </trkpt>
      <trkpt lat="51.96221" lon="1.356605">
        <ele>13.345716</ele>
        <time>2024-07-21T09:31:24.000Z</time>
      </trkpt>
      <trkpt lat="51.962147" lon="1.356573">
        <ele>13.364786</ele>
        <time>2024-07-21T09:31:25.000Z</time>
      </trkpt>
      <trkpt lat="51.961563" lon="1.356223">
        <ele>13.583741</ele>
        <time>2024-07-21T09:31:32.000Z</time>
      </trkpt>
      <trkpt lat="51.961547" lon="1.356173">
        <ele>13.593113</ele>
        <time>2024-07-21T09:31:32.000Z</time>
      </trkpt>
      <trkpt lat="51.961461" lon="1.355566">
        <ele>13.395101</ele>
        <time>2024-07-21T09:31:36.000Z</time>
      </trkpt>
      <trkpt lat="51.961256" lon="1.354413">
        <ele>12.896477</ele>
        <time>2024-07-21T09:31:44.000Z</time>
      </trkpt>
      <trkpt lat="51.960792" lon="1.352696">
        <ele>12.062272</ele>
        <time>2024-07-21T09:31:57.000Z</time>
      </trkpt>
      <trkpt lat="51.960709" lon="1.352383">
        <ele>11.889165</ele>
        <time>2024-07-21T09:31:59.000Z</time>
      </trkpt>
      <trkpt lat="51.960705" lon="1.351868">
        <ele>11.64316</ele>
        <time>2024-07-21T09:32:03.000Z</time>
      </trkpt>
      <trkpt lat="51.960555" lon="1.351234">
        <ele>11.306848</ele>
        <time>2024-07-21T09:32:08.000Z</time>
      </trkpt>
      <trkpt lat="51.960545" lon="1.351109">
        <ele>11.250098</ele>
        <time>2024-07-21T09:32:09.000Z</time>
      </trkpt>
      <trkpt lat="51.960487" lon="1.350965">
        <ele>11.167146</ele>
        <time>2024-07-21T09:32:10.000Z</time>
      </trkpt>
      <trkpt lat="51.960331" lon="1.350433">
        <ele>10.67625</ele>
        <time>2024-07-21T09:32:14.000Z</time>
      </trkpt>
      <trkpt lat="51.960003" lon="1.349445">
        <ele>8.974841</ele>
        <time>2024-07-21T09:32:22.000Z</time>
      </trkpt>
      <trkpt lat="51.959868" lon="1.348918">
        <ele>8.073604</ele>
        <time>2024-07-21T09:32:26.000Z</time>
      </trkpt>
      <trkpt lat="51.95985" lon="1.348861">
        <ele>7.980689</ele>
        <time>2024-07-21T09:32:26.000Z</time>
      </trkpt>
      <trkpt lat="51.959396" lon="1.347966">
        <ele>6.362182</ele>
        <time>2024-07-21T09:32:34.000Z</time>
      </trkpt>
      <trkpt lat="51.959352" lon="1.347901">
        <ele>6.311667</ele>
        <time>2024-07-21T09:32:35.000Z</time>
      </trkpt>
      <trkpt lat="51.959145" lon="1.34777">
        <ele>6.08763</ele>
        <time>2024-07-21T09:32:37.000Z</time>
      </trkpt>
      <trkpt lat="51.959022" lon="1.347829">
        <ele>5.946677</ele>
        <time>2024-07-21T09:32:38.000Z</time>
      </trkpt>
      <trkpt lat="51.958984" lon="1.347759">
        <ele>5.892045</ele>
        <time>2024-07-21T09:32:39.000Z</time>
      </trkpt>
      <trkpt lat="51.958917" lon="1.347587">
        <ele>5.764588</ele>
        <time>2024-07-21T09:32:40.000Z</time>
      </trkpt>
      <trkpt lat="51.958816" lon="1.347222">
        <ele>5.510093</ele>
        <time>2024-07-21T09:32:43.000Z</time>
      </trkpt>
      <trkpt lat="51.958771" lon="1.347082">
        <ele>5.416184</ele>
        <time>2024-07-21T09:32:44.000Z</time>
      </trkpt>
      <trkpt lat="51.958678" lon="1.346727">
        <ele>5.17067</ele>
        <time>2024-07-21T09:32:47.000Z</time>
      </trkpt>
      <trkpt lat="51.958461" lon="1.34586">
        <ele>4.62469387098</ele>
        <time>2024-07-21T09:32:53.000Z</time>
      </trkpt>
      <trkpt lat="51.958443" lon="1.345748">
        <ele>4.5571623908</ele>
        <time>2024-07-21T09:32:54.000Z</time>
      </trkpt>
      <trkpt lat="51.958316" lon="1.345231">
        <ele>4.23243859304</ele>
        <time>2024-07-21T09:32:58.000Z</time>
      </trkpt>
      <trkpt lat="51.958291" lon="1.345125">
        <ele>4.16621854531</ele>
        <time>2024-07-21T09:32:59.000Z</time>
      </trkpt>
      <trkpt lat="51.958208" lon="1.344704">
        <ele>3.9083232569</ele>
        <time>2024-07-21T09:33:02.000Z</time>
      </trkpt>
      <trkpt lat="51.958173" lon="1.344364">
        <ele>3.70720242226</ele>
        <time>2024-07-21T09:33:04.000Z</time>
      </trkpt>
      <trkpt lat="51.958057" lon="1.344365">
        <ele>3.59737306277</ele>
        <time>2024-07-21T09:33:05.000Z</time>
      </trkpt>
      <trkpt lat="51.957851" lon="1.344141">
        <ele>3.36259474657</ele>
        <time>2024-07-21T09:33:08.000Z</time>
      </trkpt>
      <trkpt lat="51.95771" lon="1.343967">
        <ele>3.19488048764</ele>
        <time>2024-07-21T09:33:10.000Z</time>
      </trkpt>
    </trkseg>
  </trk>
</gpx>

<!--
Performance optimized by W3 Total Cache. Learn more: https://www.boldgrid.com/w3-total-cache/?utm_source=w3tc&utm_medium=footer_comment&utm_campaign=free_plugin

Page Caching using Disk: Enhanced{w3tc_pagecache_reject_reason} 

Served from: www.aquabike.world @ 2026-05-10 12:22:42 by W3 Total Cache
-->